<?xml version="1.0" encoding="UTF-8" standalone="no" ?>
<gpx xmlns="http://www.topografix.com/GPX/1/1" xmlns:xsi="http://www.w3.org/2001/XMLSchema-instance" xsi:schemaLocation="http://www.topografix.com/GPX/1/1 http://www.topografix.com/GPX/1/1/gpx.xsd" version="1.1" creator="VisuGPX - https://www.visugpx.com">
  <metadata>
    <name>Guebwiller (Château Freundstein)</name>
    <desc><![CDATA[File with points/tracks from LocusWorld/]]></desc>
  </metadata>
  <trk>
    <name><![CDATA[2019-02-27 09:46:54]]></name>
    <extensions>
      <line xmlns="http://www.topografix.com/GPX/gpx_style/0/2">
        <color>0000FF</color>
        <opacity>0.78</opacity>
        <width>3.0</width>
      </line>
    </extensions>
    <trkseg>
      <trkpt lat="47.9004" lon="7.17638">
        <ele>464.27</ele>
        <time>2019-02-27T08:46:56.000Z</time>
      </trkpt>
      <trkpt lat="47.90037" lon="7.17637">
        <ele>459.98</ele>
        <time>2019-02-27T08:47:21.000Z</time>
      </trkpt>
      <trkpt lat="47.90038" lon="7.17641">
        <ele>461.66</ele>
        <time>2019-02-27T08:47:39.000Z</time>
      </trkpt>
      <trkpt lat="47.9004" lon="7.17643">
        <ele>462.07</ele>
        <time>2019-02-27T08:47:57.000Z</time>
      </trkpt>
      <trkpt lat="47.90042" lon="7.17642">
        <ele>462.9</ele>
        <time>2019-02-27T08:48:15.000Z</time>
      </trkpt>
      <trkpt lat="47.90046" lon="7.17647">
        <ele>462.77</ele>
        <time>2019-02-27T08:48:33.000Z</time>
      </trkpt>
      <trkpt lat="47.90046" lon="7.17642">
        <ele>462.77</ele>
        <time>2019-02-27T08:48:51.000Z</time>
      </trkpt>
      <trkpt lat="47.90036" lon="7.1762">
        <ele>464.85</ele>
        <time>2019-02-27T08:49:09.000Z</time>
      </trkpt>
      <trkpt lat="47.90034" lon="7.17597">
        <ele>468.08</ele>
        <time>2019-02-27T08:49:27.000Z</time>
      </trkpt>
      <trkpt lat="47.90024" lon="7.17594">
        <ele>469.46</ele>
        <time>2019-02-27T08:49:45.000Z</time>
      </trkpt>
      <trkpt lat="47.90017" lon="7.17592">
        <ele>468.76</ele>
        <time>2019-02-27T08:50:03.000Z</time>
      </trkpt>
      <trkpt lat="47.90001" lon="7.17578">
        <ele>465.78</ele>
        <time>2019-02-27T08:50:21.000Z</time>
      </trkpt>
      <trkpt lat="47.89984" lon="7.17554">
        <ele>464.38</ele>
        <time>2019-02-27T08:50:39.000Z</time>
      </trkpt>
      <trkpt lat="47.89971" lon="7.17536">
        <ele>463.95</ele>
        <time>2019-02-27T08:50:57.000Z</time>
      </trkpt>
      <trkpt lat="47.89956" lon="7.1752">
        <ele>467.62</ele>
        <time>2019-02-27T08:51:15.000Z</time>
      </trkpt>
      <trkpt lat="47.89932" lon="7.17517">
        <ele>469.94</ele>
        <time>2019-02-27T08:51:33.000Z</time>
      </trkpt>
      <trkpt lat="47.89917" lon="7.17501">
        <ele>475.63</ele>
        <time>2019-02-27T08:51:51.000Z</time>
      </trkpt>
      <trkpt lat="47.89908" lon="7.17475">
        <ele>477.88</ele>
        <time>2019-02-27T08:52:09.000Z</time>
      </trkpt>
      <trkpt lat="47.89895" lon="7.17468">
        <ele>479</ele>
        <time>2019-02-27T08:52:27.000Z</time>
      </trkpt>
      <trkpt lat="47.8988" lon="7.17455">
        <ele>481.76</ele>
        <time>2019-02-27T08:52:45.000Z</time>
      </trkpt>
      <trkpt lat="47.89863" lon="7.17442">
        <ele>485.89</ele>
        <time>2019-02-27T08:53:03.000Z</time>
      </trkpt>
      <trkpt lat="47.8985" lon="7.1742">
        <ele>491.2</ele>
        <time>2019-02-27T08:53:21.000Z</time>
      </trkpt>
      <trkpt lat="47.89837" lon="7.17411">
        <ele>497.61</ele>
        <time>2019-02-27T08:53:39.000Z</time>
      </trkpt>
      <trkpt lat="47.89822" lon="7.17402">
        <ele>503.39</ele>
        <time>2019-02-27T08:53:57.000Z</time>
      </trkpt>
      <trkpt lat="47.89808" lon="7.17397">
        <ele>519.69</ele>
        <time>2019-02-27T08:54:15.000Z</time>
      </trkpt>
      <trkpt lat="47.89794" lon="7.17391">
        <ele>512.09</ele>
        <time>2019-02-27T08:54:33.000Z</time>
      </trkpt>
      <trkpt lat="47.89784" lon="7.17386">
        <ele>512.16</ele>
        <time>2019-02-27T08:54:51.000Z</time>
      </trkpt>
      <trkpt lat="47.89771" lon="7.17366">
        <ele>509.57</ele>
        <time>2019-02-27T08:55:09.000Z</time>
      </trkpt>
      <trkpt lat="47.89766" lon="7.17352">
        <ele>512.17</ele>
        <time>2019-02-27T08:55:27.000Z</time>
      </trkpt>
      <trkpt lat="47.89755" lon="7.17344">
        <ele>514.43</ele>
        <time>2019-02-27T08:55:45.000Z</time>
      </trkpt>
      <trkpt lat="47.8975" lon="7.17331">
        <ele>520.84</ele>
        <time>2019-02-27T08:56:03.000Z</time>
      </trkpt>
      <trkpt lat="47.89738" lon="7.17326">
        <ele>523.88</ele>
        <time>2019-02-27T08:56:21.000Z</time>
      </trkpt>
      <trkpt lat="47.89722" lon="7.1732">
        <ele>523.39</ele>
        <time>2019-02-27T08:56:39.000Z</time>
      </trkpt>
      <trkpt lat="47.89702" lon="7.17299">
        <ele>531.85</ele>
        <time>2019-02-27T08:56:57.000Z</time>
      </trkpt>
      <trkpt lat="47.89701" lon="7.17304">
        <ele>532.62</ele>
        <time>2019-02-27T08:57:15.000Z</time>
      </trkpt>
      <trkpt lat="47.89699" lon="7.17308">
        <ele>532.7</ele>
        <time>2019-02-27T08:57:33.000Z</time>
      </trkpt>
      <trkpt lat="47.89692" lon="7.17305">
        <ele>530.44</ele>
        <time>2019-02-27T08:57:51.000Z</time>
      </trkpt>
      <trkpt lat="47.89686" lon="7.17289">
        <ele>531.55</ele>
        <time>2019-02-27T08:58:09.000Z</time>
      </trkpt>
      <trkpt lat="47.89664" lon="7.17266">
        <ele>533.45</ele>
        <time>2019-02-27T08:58:27.000Z</time>
      </trkpt>
      <trkpt lat="47.89646" lon="7.17246">
        <ele>530.9</ele>
        <time>2019-02-27T08:58:45.000Z</time>
      </trkpt>
      <trkpt lat="47.89636" lon="7.1724">
        <ele>528.4</ele>
        <time>2019-02-27T08:59:03.000Z</time>
      </trkpt>
      <trkpt lat="47.89628" lon="7.17223">
        <ele>533.37</ele>
        <time>2019-02-27T08:59:21.000Z</time>
      </trkpt>
      <trkpt lat="47.89625" lon="7.17198">
        <ele>535.04</ele>
        <time>2019-02-27T08:59:39.000Z</time>
      </trkpt>
      <trkpt lat="47.89612" lon="7.17166">
        <ele>528.99</ele>
        <time>2019-02-27T08:59:57.000Z</time>
      </trkpt>
      <trkpt lat="47.89606" lon="7.17148">
        <ele>527.47</ele>
        <time>2019-02-27T09:00:15.000Z</time>
      </trkpt>
      <trkpt lat="47.89599" lon="7.17146">
        <ele>526.34</ele>
        <time>2019-02-27T09:00:33.000Z</time>
      </trkpt>
      <trkpt lat="47.89593" lon="7.17144">
        <ele>527.53</ele>
        <time>2019-02-27T09:00:51.000Z</time>
      </trkpt>
      <trkpt lat="47.89588" lon="7.17145">
        <ele>528.02</ele>
        <time>2019-02-27T09:01:09.000Z</time>
      </trkpt>
      <trkpt lat="47.89587" lon="7.17141">
        <ele>527.71</ele>
        <time>2019-02-27T09:03:31.000Z</time>
      </trkpt>
      <trkpt lat="47.89586" lon="7.17137">
        <ele>527.51</ele>
        <time>2019-02-27T09:04:07.000Z</time>
      </trkpt>
      <trkpt lat="47.89586" lon="7.17134">
        <ele>526.79</ele>
        <time>2019-02-27T09:05:01.000Z</time>
      </trkpt>
      <trkpt lat="47.89585" lon="7.17136">
        <ele>526.82</ele>
        <time>2019-02-27T09:05:19.000Z</time>
      </trkpt>
      <trkpt lat="47.89588" lon="7.17122">
        <ele>533.26</ele>
        <time>2019-02-27T09:05:37.000Z</time>
      </trkpt>
      <trkpt lat="47.89588" lon="7.17094">
        <ele>537.32</ele>
        <time>2019-02-27T09:05:55.000Z</time>
      </trkpt>
      <trkpt lat="47.89586" lon="7.17078">
        <ele>541.94</ele>
        <time>2019-02-27T09:06:13.000Z</time>
      </trkpt>
      <trkpt lat="47.89573" lon="7.17069">
        <ele>544.74</ele>
        <time>2019-02-27T09:06:31.000Z</time>
      </trkpt>
      <trkpt lat="47.89559" lon="7.17055">
        <ele>544.66</ele>
        <time>2019-02-27T09:06:49.000Z</time>
      </trkpt>
      <trkpt lat="47.89551" lon="7.17039">
        <ele>551.61</ele>
        <time>2019-02-27T09:07:07.000Z</time>
      </trkpt>
      <trkpt lat="47.89538" lon="7.17027">
        <ele>548.98</ele>
        <time>2019-02-27T09:07:25.000Z</time>
      </trkpt>
      <trkpt lat="47.89527" lon="7.17009">
        <ele>548.99</ele>
        <time>2019-02-27T09:07:43.000Z</time>
      </trkpt>
      <trkpt lat="47.89512" lon="7.16995">
        <ele>552.14</ele>
        <time>2019-02-27T09:08:01.000Z</time>
      </trkpt>
      <trkpt lat="47.89502" lon="7.16973">
        <ele>559.48</ele>
        <time>2019-02-27T09:08:19.000Z</time>
      </trkpt>
      <trkpt lat="47.89493" lon="7.16965">
        <ele>567.38</ele>
        <time>2019-02-27T09:08:37.000Z</time>
      </trkpt>
      <trkpt lat="47.89485" lon="7.16953">
        <ele>569.02</ele>
        <time>2019-02-27T09:08:55.000Z</time>
      </trkpt>
      <trkpt lat="47.89476" lon="7.16922">
        <ele>570.3</ele>
        <time>2019-02-27T09:09:13.000Z</time>
      </trkpt>
      <trkpt lat="47.89469" lon="7.16917">
        <ele>566.83</ele>
        <time>2019-02-27T09:09:31.000Z</time>
      </trkpt>
      <trkpt lat="47.8946" lon="7.16915">
        <ele>567.09</ele>
        <time>2019-02-27T09:09:49.000Z</time>
      </trkpt>
      <trkpt lat="47.89454" lon="7.16892">
        <ele>575.17</ele>
        <time>2019-02-27T09:10:07.000Z</time>
      </trkpt>
      <trkpt lat="47.89446" lon="7.16874">
        <ele>582.66</ele>
        <time>2019-02-27T09:10:25.000Z</time>
      </trkpt>
      <trkpt lat="47.89439" lon="7.16854">
        <ele>585.62</ele>
        <time>2019-02-27T09:10:43.000Z</time>
      </trkpt>
      <trkpt lat="47.8943" lon="7.16841">
        <ele>582.39</ele>
        <time>2019-02-27T09:11:01.000Z</time>
      </trkpt>
      <trkpt lat="47.89413" lon="7.16826">
        <ele>580.15</ele>
        <time>2019-02-27T09:11:19.000Z</time>
      </trkpt>
      <trkpt lat="47.8941" lon="7.16799">
        <ele>584.88</ele>
        <time>2019-02-27T09:11:37.000Z</time>
      </trkpt>
      <trkpt lat="47.89407" lon="7.16782">
        <ele>589.89</ele>
        <time>2019-02-27T09:11:55.000Z</time>
      </trkpt>
      <trkpt lat="47.89408" lon="7.16785">
        <ele>592.56</ele>
        <time>2019-02-27T09:12:13.000Z</time>
      </trkpt>
      <trkpt lat="47.89406" lon="7.16782">
        <ele>595.99</ele>
        <time>2019-02-27T09:13:07.000Z</time>
      </trkpt>
      <trkpt lat="47.89406" lon="7.16781">
        <ele>596.84</ele>
        <time>2019-02-27T09:13:43.000Z</time>
      </trkpt>
      <trkpt lat="47.89405" lon="7.16771">
        <ele>595.22</ele>
        <time>2019-02-27T09:15:49.000Z</time>
      </trkpt>
      <trkpt lat="47.89397" lon="7.16764">
        <ele>595.68</ele>
        <time>2019-02-27T09:17:36.000Z</time>
      </trkpt>
      <trkpt lat="47.89387" lon="7.1676">
        <ele>599.59</ele>
        <time>2019-02-27T09:17:54.000Z</time>
      </trkpt>
      <trkpt lat="47.89382" lon="7.16737">
        <ele>604.47</ele>
        <time>2019-02-27T09:18:12.000Z</time>
      </trkpt>
      <trkpt lat="47.89382" lon="7.16713">
        <ele>605.7</ele>
        <time>2019-02-27T09:18:30.000Z</time>
      </trkpt>
      <trkpt lat="47.89375" lon="7.16697">
        <ele>605.55</ele>
        <time>2019-02-27T09:18:48.000Z</time>
      </trkpt>
      <trkpt lat="47.89369" lon="7.16669">
        <ele>589</ele>
        <time>2019-02-27T09:19:06.000Z</time>
      </trkpt>
      <trkpt lat="47.89363" lon="7.16664">
        <ele>606.09</ele>
        <time>2019-02-27T09:19:24.000Z</time>
      </trkpt>
      <trkpt lat="47.89356" lon="7.16644">
        <ele>573.47</ele>
        <time>2019-02-27T09:19:42.000Z</time>
      </trkpt>
      <trkpt lat="47.89352" lon="7.16623">
        <ele>617.67</ele>
        <time>2019-02-27T09:20:00.000Z</time>
      </trkpt>
      <trkpt lat="47.89346" lon="7.16611">
        <ele>625.87</ele>
        <time>2019-02-27T09:20:18.000Z</time>
      </trkpt>
      <trkpt lat="47.8934" lon="7.16586">
        <ele>621.36</ele>
        <time>2019-02-27T09:20:36.000Z</time>
      </trkpt>
      <trkpt lat="47.89331" lon="7.16574">
        <ele>630.33</ele>
        <time>2019-02-27T09:20:54.000Z</time>
      </trkpt>
      <trkpt lat="47.89327" lon="7.16558">
        <ele>633.29</ele>
        <time>2019-02-27T09:21:11.000Z</time>
      </trkpt>
      <trkpt lat="47.89322" lon="7.16533">
        <ele>630.01</ele>
        <time>2019-02-27T09:21:29.000Z</time>
      </trkpt>
      <trkpt lat="47.89315" lon="7.16519">
        <ele>644.22</ele>
        <time>2019-02-27T09:21:47.000Z</time>
      </trkpt>
      <trkpt lat="47.89314" lon="7.16489">
        <ele>647.93</ele>
        <time>2019-02-27T09:22:05.000Z</time>
      </trkpt>
      <trkpt lat="47.89314" lon="7.16473">
        <ele>583.76</ele>
        <time>2019-02-27T09:22:23.000Z</time>
      </trkpt>
      <trkpt lat="47.89316" lon="7.16452">
        <ele>654.04</ele>
        <time>2019-02-27T09:22:41.000Z</time>
      </trkpt>
      <trkpt lat="47.89313" lon="7.16439">
        <ele>662.27</ele>
        <time>2019-02-27T09:22:59.000Z</time>
      </trkpt>
      <trkpt lat="47.89308" lon="7.16419">
        <ele>656.32</ele>
        <time>2019-02-27T09:23:17.000Z</time>
      </trkpt>
      <trkpt lat="47.89303" lon="7.16389">
        <ele>662.96</ele>
        <time>2019-02-27T09:23:35.000Z</time>
      </trkpt>
      <trkpt lat="47.89301" lon="7.16359">
        <ele>644.25</ele>
        <time>2019-02-27T09:23:53.000Z</time>
      </trkpt>
      <trkpt lat="47.89298" lon="7.16335">
        <ele>660.79</ele>
        <time>2019-02-27T09:24:11.000Z</time>
      </trkpt>
      <trkpt lat="47.89289" lon="7.16319">
        <ele>658.06</ele>
        <time>2019-02-27T09:24:29.000Z</time>
      </trkpt>
      <trkpt lat="47.89284" lon="7.16294">
        <ele>666.3</ele>
        <time>2019-02-27T09:24:47.000Z</time>
      </trkpt>
      <trkpt lat="47.89281" lon="7.16285">
        <ele>654.65</ele>
        <time>2019-02-27T09:25:05.000Z</time>
      </trkpt>
      <trkpt lat="47.89279" lon="7.16272">
        <ele>661.15</ele>
        <time>2019-02-27T09:25:23.000Z</time>
      </trkpt>
      <trkpt lat="47.89278" lon="7.16268">
        <ele>663.12</ele>
        <time>2019-02-27T09:25:41.000Z</time>
      </trkpt>
      <trkpt lat="47.89277" lon="7.16266">
        <ele>665.51</ele>
        <time>2019-02-27T09:26:35.000Z</time>
      </trkpt>
      <trkpt lat="47.89274" lon="7.16261">
        <ele>667.52</ele>
        <time>2019-02-27T09:27:11.000Z</time>
      </trkpt>
      <trkpt lat="47.89276" lon="7.16261">
        <ele>666.71</ele>
        <time>2019-02-27T09:35:35.000Z</time>
      </trkpt>
      <trkpt lat="47.89285" lon="7.16278">
        <ele>665.09</ele>
        <time>2019-02-27T09:35:53.000Z</time>
      </trkpt>
      <trkpt lat="47.893" lon="7.16295">
        <ele>675.25</ele>
        <time>2019-02-27T09:36:11.000Z</time>
      </trkpt>
      <trkpt lat="47.89315" lon="7.16314">
        <ele>680.99</ele>
        <time>2019-02-27T09:36:29.000Z</time>
      </trkpt>
      <trkpt lat="47.89344" lon="7.16341">
        <ele>662.8</ele>
        <time>2019-02-27T09:36:47.000Z</time>
      </trkpt>
      <trkpt lat="47.89365" lon="7.16369">
        <ele>675.64</ele>
        <time>2019-02-27T09:37:05.000Z</time>
      </trkpt>
      <trkpt lat="47.89379" lon="7.16384">
        <ele>684.35</ele>
        <time>2019-02-27T09:37:23.000Z</time>
      </trkpt>
      <trkpt lat="47.89393" lon="7.16403">
        <ele>684.68</ele>
        <time>2019-02-27T09:37:41.000Z</time>
      </trkpt>
      <trkpt lat="47.89416" lon="7.16419">
        <ele>689.01</ele>
        <time>2019-02-27T09:37:59.000Z</time>
      </trkpt>
      <trkpt lat="47.89432" lon="7.16436">
        <ele>690.44</ele>
        <time>2019-02-27T09:38:17.000Z</time>
      </trkpt>
      <trkpt lat="47.89461" lon="7.16428">
        <ele>696.46</ele>
        <time>2019-02-27T09:38:35.000Z</time>
      </trkpt>
      <trkpt lat="47.89457" lon="7.16413">
        <ele>697.96</ele>
        <time>2019-02-27T09:38:53.000Z</time>
      </trkpt>
      <trkpt lat="47.89448" lon="7.16389">
        <ele>694.68</ele>
        <time>2019-02-27T09:39:11.000Z</time>
      </trkpt>
      <trkpt lat="47.89445" lon="7.16353">
        <ele>697.15</ele>
        <time>2019-02-27T09:39:29.000Z</time>
      </trkpt>
      <trkpt lat="47.8944" lon="7.16322">
        <ele>707.36</ele>
        <time>2019-02-27T09:39:47.000Z</time>
      </trkpt>
      <trkpt lat="47.89419" lon="7.16297">
        <ele>702.5</ele>
        <time>2019-02-27T09:40:05.000Z</time>
      </trkpt>
      <trkpt lat="47.89404" lon="7.16272">
        <ele>700.17</ele>
        <time>2019-02-27T09:40:23.000Z</time>
      </trkpt>
      <trkpt lat="47.89389" lon="7.16254">
        <ele>711.76</ele>
        <time>2019-02-27T09:40:41.000Z</time>
      </trkpt>
      <trkpt lat="47.8938" lon="7.16233">
        <ele>634.21</ele>
        <time>2019-02-27T09:40:59.000Z</time>
      </trkpt>
      <trkpt lat="47.8937" lon="7.16198">
        <ele>670.66</ele>
        <time>2019-02-27T09:41:17.000Z</time>
      </trkpt>
      <trkpt lat="47.89353" lon="7.16173">
        <ele>703.42</ele>
        <time>2019-02-27T09:41:35.000Z</time>
      </trkpt>
      <trkpt lat="47.8935" lon="7.16151">
        <ele>714.79</ele>
        <time>2019-02-27T09:41:53.000Z</time>
      </trkpt>
      <trkpt lat="47.89349" lon="7.16116">
        <ele>715.7</ele>
        <time>2019-02-27T09:42:11.000Z</time>
      </trkpt>
      <trkpt lat="47.89328" lon="7.16092">
        <ele>710.93</ele>
        <time>2019-02-27T09:42:29.000Z</time>
      </trkpt>
      <trkpt lat="47.8931" lon="7.16071">
        <ele>694.37</ele>
        <time>2019-02-27T09:42:47.000Z</time>
      </trkpt>
      <trkpt lat="47.89297" lon="7.16065">
        <ele>715.75</ele>
        <time>2019-02-27T09:43:05.000Z</time>
      </trkpt>
      <trkpt lat="47.89272" lon="7.16067">
        <ele>720.98</ele>
        <time>2019-02-27T09:43:23.000Z</time>
      </trkpt>
      <trkpt lat="47.89247" lon="7.16066">
        <ele>721.12</ele>
        <time>2019-02-27T09:43:41.000Z</time>
      </trkpt>
      <trkpt lat="47.89231" lon="7.16064">
        <ele>724.98</ele>
        <time>2019-02-27T09:43:59.000Z</time>
      </trkpt>
      <trkpt lat="47.89212" lon="7.16052">
        <ele>724.31</ele>
        <time>2019-02-27T09:44:17.000Z</time>
      </trkpt>
      <trkpt lat="47.8919" lon="7.16027">
        <ele>716.55</ele>
        <time>2019-02-27T09:44:35.000Z</time>
      </trkpt>
      <trkpt lat="47.89176" lon="7.16018">
        <ele>699.72</ele>
        <time>2019-02-27T09:44:53.000Z</time>
      </trkpt>
      <trkpt lat="47.89158" lon="7.16007">
        <ele>723.25</ele>
        <time>2019-02-27T09:45:11.000Z</time>
      </trkpt>
      <trkpt lat="47.89146" lon="7.15983">
        <ele>731.55</ele>
        <time>2019-02-27T09:45:29.000Z</time>
      </trkpt>
      <trkpt lat="47.89142" lon="7.15976">
        <ele>734.01</ele>
        <time>2019-02-27T09:45:47.000Z</time>
      </trkpt>
      <trkpt lat="47.89132" lon="7.15962">
        <ele>733.58</ele>
        <time>2019-02-27T09:46:05.000Z</time>
      </trkpt>
      <trkpt lat="47.89117" lon="7.15953">
        <ele>732.28</ele>
        <time>2019-02-27T09:46:23.000Z</time>
      </trkpt>
      <trkpt lat="47.89109" lon="7.1592">
        <ele>737.8</ele>
        <time>2019-02-27T09:46:41.000Z</time>
      </trkpt>
      <trkpt lat="47.89095" lon="7.15896">
        <ele>734.94</ele>
        <time>2019-02-27T09:46:59.000Z</time>
      </trkpt>
      <trkpt lat="47.89081" lon="7.15879">
        <ele>741.8</ele>
        <time>2019-02-27T09:47:17.000Z</time>
      </trkpt>
      <trkpt lat="47.89069" lon="7.15858">
        <ele>753.75</ele>
        <time>2019-02-27T09:47:35.000Z</time>
      </trkpt>
      <trkpt lat="47.89064" lon="7.15837">
        <ele>753.11</ele>
        <time>2019-02-27T09:47:53.000Z</time>
      </trkpt>
      <trkpt lat="47.89059" lon="7.1581">
        <ele>755.04</ele>
        <time>2019-02-27T09:48:11.000Z</time>
      </trkpt>
      <trkpt lat="47.89048" lon="7.15784">
        <ele>755.75</ele>
        <time>2019-02-27T09:48:29.000Z</time>
      </trkpt>
      <trkpt lat="47.89037" lon="7.1576">
        <ele>757.89</ele>
        <time>2019-02-27T09:48:47.000Z</time>
      </trkpt>
      <trkpt lat="47.89027" lon="7.15732">
        <ele>762.02</ele>
        <time>2019-02-27T09:49:05.000Z</time>
      </trkpt>
      <trkpt lat="47.89016" lon="7.15706">
        <ele>760.73</ele>
        <time>2019-02-27T09:49:23.000Z</time>
      </trkpt>
      <trkpt lat="47.88999" lon="7.15703">
        <ele>769.32</ele>
        <time>2019-02-27T09:49:41.000Z</time>
      </trkpt>
      <trkpt lat="47.88986" lon="7.15713">
        <ele>769.68</ele>
        <time>2019-02-27T09:49:59.000Z</time>
      </trkpt>
      <trkpt lat="47.88982" lon="7.15717">
        <ele>768.85</ele>
        <time>2019-02-27T09:50:17.000Z</time>
      </trkpt>
      <trkpt lat="47.88967" lon="7.15707">
        <ele>767.53</ele>
        <time>2019-02-27T09:50:35.000Z</time>
      </trkpt>
      <trkpt lat="47.8895" lon="7.15701">
        <ele>766.3</ele>
        <time>2019-02-27T09:50:53.000Z</time>
      </trkpt>
      <trkpt lat="47.88926" lon="7.15698">
        <ele>763.74</ele>
        <time>2019-02-27T09:51:11.000Z</time>
      </trkpt>
      <trkpt lat="47.88913" lon="7.15682">
        <ele>768.98</ele>
        <time>2019-02-27T09:51:29.000Z</time>
      </trkpt>
      <trkpt lat="47.88895" lon="7.15662">
        <ele>773.23</ele>
        <time>2019-02-27T09:51:47.000Z</time>
      </trkpt>
      <trkpt lat="47.8888" lon="7.15644">
        <ele>775.59</ele>
        <time>2019-02-27T09:52:05.000Z</time>
      </trkpt>
      <trkpt lat="47.8887" lon="7.15621">
        <ele>777.11</ele>
        <time>2019-02-27T09:52:23.000Z</time>
      </trkpt>
      <trkpt lat="47.88862" lon="7.15599">
        <ele>781.52</ele>
        <time>2019-02-27T09:52:41.000Z</time>
      </trkpt>
      <trkpt lat="47.88852" lon="7.15586">
        <ele>782.93</ele>
        <time>2019-02-27T09:52:59.000Z</time>
      </trkpt>
      <trkpt lat="47.88839" lon="7.15564">
        <ele>781.61</ele>
        <time>2019-02-27T09:53:17.000Z</time>
      </trkpt>
      <trkpt lat="47.88825" lon="7.15543">
        <ele>784.21</ele>
        <time>2019-02-27T09:53:35.000Z</time>
      </trkpt>
      <trkpt lat="47.88814" lon="7.1552">
        <ele>779.09</ele>
        <time>2019-02-27T09:53:53.000Z</time>
      </trkpt>
      <trkpt lat="47.88799" lon="7.15494">
        <ele>782.94</ele>
        <time>2019-02-27T09:54:11.000Z</time>
      </trkpt>
      <trkpt lat="47.8879" lon="7.15471">
        <ele>746.65</ele>
        <time>2019-02-27T09:54:29.000Z</time>
      </trkpt>
      <trkpt lat="47.8878" lon="7.15445">
        <ele>789.98</ele>
        <time>2019-02-27T09:54:47.000Z</time>
      </trkpt>
      <trkpt lat="47.88763" lon="7.15423">
        <ele>795.16</ele>
        <time>2019-02-27T09:55:05.000Z</time>
      </trkpt>
      <trkpt lat="47.88747" lon="7.15408">
        <ele>789.15</ele>
        <time>2019-02-27T09:55:23.000Z</time>
      </trkpt>
      <trkpt lat="47.88738" lon="7.15398">
        <ele>796.27</ele>
        <time>2019-02-27T09:55:41.000Z</time>
      </trkpt>
      <trkpt lat="47.88725" lon="7.15381">
        <ele>801.18</ele>
        <time>2019-02-27T09:55:59.000Z</time>
      </trkpt>
      <trkpt lat="47.88707" lon="7.15378">
        <ele>800.15</ele>
        <time>2019-02-27T09:56:17.000Z</time>
      </trkpt>
      <trkpt lat="47.88696" lon="7.15355">
        <ele>808.26</ele>
        <time>2019-02-27T09:56:34.000Z</time>
      </trkpt>
      <trkpt lat="47.88683" lon="7.15325">
        <ele>808.14</ele>
        <time>2019-02-27T09:56:52.000Z</time>
      </trkpt>
      <trkpt lat="47.88672" lon="7.15304">
        <ele>839.55</ele>
        <time>2019-02-27T09:57:10.000Z</time>
      </trkpt>
      <trkpt lat="47.88659" lon="7.15283">
        <ele>821.25</ele>
        <time>2019-02-27T09:57:28.000Z</time>
      </trkpt>
      <trkpt lat="47.88647" lon="7.15273">
        <ele>813.56</ele>
        <time>2019-02-27T09:57:46.000Z</time>
      </trkpt>
      <trkpt lat="47.8865" lon="7.15275">
        <ele>812.87</ele>
        <time>2019-02-27T09:58:04.000Z</time>
      </trkpt>
      <trkpt lat="47.88638" lon="7.15258">
        <ele>811.56</ele>
        <time>2019-02-27T09:58:40.000Z</time>
      </trkpt>
      <trkpt lat="47.88637" lon="7.15245">
        <ele>821.01</ele>
        <time>2019-02-27T09:58:58.000Z</time>
      </trkpt>
      <trkpt lat="47.88637" lon="7.15232">
        <ele>833.11</ele>
        <time>2019-02-27T09:59:16.000Z</time>
      </trkpt>
      <trkpt lat="47.88631" lon="7.1522">
        <ele>840.45</ele>
        <time>2019-02-27T09:59:34.000Z</time>
      </trkpt>
      <trkpt lat="47.88627" lon="7.15216">
        <ele>842.05</ele>
        <time>2019-02-27T09:59:52.000Z</time>
      </trkpt>
      <trkpt lat="47.88615" lon="7.15212">
        <ele>842.52</ele>
        <time>2019-02-27T10:00:10.000Z</time>
      </trkpt>
      <trkpt lat="47.88613" lon="7.15212">
        <ele>842.68</ele>
        <time>2019-02-27T10:00:46.000Z</time>
      </trkpt>
      <trkpt lat="47.88615" lon="7.15212">
        <ele>841.36</ele>
        <time>2019-02-27T10:04:04.000Z</time>
      </trkpt>
      <trkpt lat="47.88614" lon="7.1522">
        <ele>842.76</ele>
        <time>2019-02-27T10:04:22.000Z</time>
      </trkpt>
      <trkpt lat="47.88612" lon="7.15189">
        <ele>836.59</ele>
        <time>2019-02-27T10:05:16.000Z</time>
      </trkpt>
      <trkpt lat="47.88602" lon="7.15178">
        <ele>833.4</ele>
        <time>2019-02-27T10:05:34.000Z</time>
      </trkpt>
      <trkpt lat="47.88594" lon="7.15158">
        <ele>829.03</ele>
        <time>2019-02-27T10:05:52.000Z</time>
      </trkpt>
      <trkpt lat="47.88587" lon="7.15145">
        <ele>831.01</ele>
        <time>2019-02-27T10:06:09.000Z</time>
      </trkpt>
      <trkpt lat="47.88585" lon="7.15092">
        <ele>833.42</ele>
        <time>2019-02-27T10:06:27.000Z</time>
      </trkpt>
      <trkpt lat="47.88585" lon="7.15062">
        <ele>836.47</ele>
        <time>2019-02-27T10:06:45.000Z</time>
      </trkpt>
      <trkpt lat="47.88569" lon="7.15036">
        <ele>833.83</ele>
        <time>2019-02-27T10:07:03.000Z</time>
      </trkpt>
      <trkpt lat="47.88567" lon="7.15005">
        <ele>824.05</ele>
        <time>2019-02-27T10:07:21.000Z</time>
      </trkpt>
      <trkpt lat="47.88561" lon="7.14975">
        <ele>820.28</ele>
        <time>2019-02-27T10:07:39.000Z</time>
      </trkpt>
      <trkpt lat="47.88566" lon="7.14945">
        <ele>820.51</ele>
        <time>2019-02-27T10:07:57.000Z</time>
      </trkpt>
      <trkpt lat="47.88568" lon="7.14911">
        <ele>817.48</ele>
        <time>2019-02-27T10:08:15.000Z</time>
      </trkpt>
      <trkpt lat="47.88572" lon="7.1488">
        <ele>818.01</ele>
        <time>2019-02-27T10:08:33.000Z</time>
      </trkpt>
      <trkpt lat="47.88583" lon="7.14858">
        <ele>823.22</ele>
        <time>2019-02-27T10:08:51.000Z</time>
      </trkpt>
      <trkpt lat="47.88574" lon="7.1482">
        <ele>827.79</ele>
        <time>2019-02-27T10:09:09.000Z</time>
      </trkpt>
      <trkpt lat="47.8856" lon="7.1479">
        <ele>806.75</ele>
        <time>2019-02-27T10:09:26.000Z</time>
      </trkpt>
      <trkpt lat="47.88566" lon="7.14784">
        <ele>822.69</ele>
        <time>2019-02-27T10:09:44.000Z</time>
      </trkpt>
      <trkpt lat="47.88577" lon="7.14774">
        <ele>825.08</ele>
        <time>2019-02-27T10:10:02.000Z</time>
      </trkpt>
      <trkpt lat="47.88588" lon="7.14759">
        <ele>828.85</ele>
        <time>2019-02-27T10:10:20.000Z</time>
      </trkpt>
      <trkpt lat="47.8859" lon="7.14757">
        <ele>830.17</ele>
        <time>2019-02-27T10:10:38.000Z</time>
      </trkpt>
      <trkpt lat="47.88593" lon="7.14752">
        <ele>828.73</ele>
        <time>2019-02-27T10:10:56.000Z</time>
      </trkpt>
      <trkpt lat="47.88594" lon="7.1473">
        <ele>832.2</ele>
        <time>2019-02-27T10:12:08.000Z</time>
      </trkpt>
      <trkpt lat="47.88596" lon="7.14716">
        <ele>800.95</ele>
        <time>2019-02-27T10:12:26.000Z</time>
      </trkpt>
      <trkpt lat="47.88593" lon="7.14693">
        <ele>827.01</ele>
        <time>2019-02-27T10:13:02.000Z</time>
      </trkpt>
      <trkpt lat="47.8859" lon="7.14666">
        <ele>830.22</ele>
        <time>2019-02-27T10:13:20.000Z</time>
      </trkpt>
      <trkpt lat="47.88581" lon="7.14646">
        <ele>830.76</ele>
        <time>2019-02-27T10:13:38.000Z</time>
      </trkpt>
      <trkpt lat="47.8857" lon="7.14615">
        <ele>829.52</ele>
        <time>2019-02-27T10:13:56.000Z</time>
      </trkpt>
      <trkpt lat="47.88544" lon="7.14578">
        <ele>827.5</ele>
        <time>2019-02-27T10:14:14.000Z</time>
      </trkpt>
      <trkpt lat="47.88538" lon="7.14557">
        <ele>825.75</ele>
        <time>2019-02-27T10:14:32.000Z</time>
      </trkpt>
      <trkpt lat="47.88525" lon="7.1455">
        <ele>823.17</ele>
        <time>2019-02-27T10:14:50.000Z</time>
      </trkpt>
      <trkpt lat="47.88516" lon="7.14533">
        <ele>831.2</ele>
        <time>2019-02-27T10:15:08.000Z</time>
      </trkpt>
      <trkpt lat="47.88501" lon="7.14507">
        <ele>829.92</ele>
        <time>2019-02-27T10:15:26.000Z</time>
      </trkpt>
      <trkpt lat="47.88496" lon="7.1448">
        <ele>836.4</ele>
        <time>2019-02-27T10:15:44.000Z</time>
      </trkpt>
      <trkpt lat="47.88505" lon="7.14447">
        <ele>836.24</ele>
        <time>2019-02-27T10:16:02.000Z</time>
      </trkpt>
      <trkpt lat="47.88512" lon="7.14419">
        <ele>838.61</ele>
        <time>2019-02-27T10:16:20.000Z</time>
      </trkpt>
      <trkpt lat="47.8852" lon="7.14391">
        <ele>845.87</ele>
        <time>2019-02-27T10:16:38.000Z</time>
      </trkpt>
      <trkpt lat="47.88525" lon="7.1436">
        <ele>843.61</ele>
        <time>2019-02-27T10:16:56.000Z</time>
      </trkpt>
      <trkpt lat="47.88527" lon="7.14326">
        <ele>839.52</ele>
        <time>2019-02-27T10:17:14.000Z</time>
      </trkpt>
      <trkpt lat="47.88529" lon="7.14307">
        <ele>841.82</ele>
        <time>2019-02-27T10:17:32.000Z</time>
      </trkpt>
      <trkpt lat="47.88531" lon="7.14273">
        <ele>863.17</ele>
        <time>2019-02-27T10:17:50.000Z</time>
      </trkpt>
      <trkpt lat="47.88523" lon="7.14238">
        <ele>880.79</ele>
        <time>2019-02-27T10:18:08.000Z</time>
      </trkpt>
      <trkpt lat="47.88513" lon="7.14222">
        <ele>859.82</ele>
        <time>2019-02-27T10:18:26.000Z</time>
      </trkpt>
      <trkpt lat="47.88499" lon="7.14199">
        <ele>852</ele>
        <time>2019-02-27T10:18:44.000Z</time>
      </trkpt>
      <trkpt lat="47.88495" lon="7.14179">
        <ele>850.71</ele>
        <time>2019-02-27T10:19:02.000Z</time>
      </trkpt>
      <trkpt lat="47.88483" lon="7.14149">
        <ele>850.35</ele>
        <time>2019-02-27T10:19:20.000Z</time>
      </trkpt>
      <trkpt lat="47.88481" lon="7.14114">
        <ele>852.71</ele>
        <time>2019-02-27T10:19:38.000Z</time>
      </trkpt>
      <trkpt lat="47.88475" lon="7.14088">
        <ele>851.09</ele>
        <time>2019-02-27T10:19:56.000Z</time>
      </trkpt>
      <trkpt lat="47.88461" lon="7.14062">
        <ele>849.22</ele>
        <time>2019-02-27T10:20:14.000Z</time>
      </trkpt>
      <trkpt lat="47.88451" lon="7.14044">
        <ele>854.16</ele>
        <time>2019-02-27T10:20:32.000Z</time>
      </trkpt>
      <trkpt lat="47.88437" lon="7.14024">
        <ele>688.43</ele>
        <time>2019-02-27T10:20:50.000Z</time>
      </trkpt>
      <trkpt lat="47.88432" lon="7.14014">
        <ele>806.2</ele>
        <time>2019-02-27T10:21:08.000Z</time>
      </trkpt>
      <trkpt lat="47.88426" lon="7.14003">
        <ele>844.09</ele>
        <time>2019-02-27T10:21:26.000Z</time>
      </trkpt>
      <trkpt lat="47.88417" lon="7.13991">
        <ele>857.99</ele>
        <time>2019-02-27T10:21:44.000Z</time>
      </trkpt>
      <trkpt lat="47.88406" lon="7.13977">
        <ele>860.36</ele>
        <time>2019-02-27T10:22:02.000Z</time>
      </trkpt>
      <trkpt lat="47.88391" lon="7.13953">
        <ele>848.93</ele>
        <time>2019-02-27T10:22:20.000Z</time>
      </trkpt>
      <trkpt lat="47.88392" lon="7.13925">
        <ele>854.69</ele>
        <time>2019-02-27T10:22:38.000Z</time>
      </trkpt>
      <trkpt lat="47.88402" lon="7.13907">
        <ele>873.51</ele>
        <time>2019-02-27T10:22:55.000Z</time>
      </trkpt>
      <trkpt lat="47.88396" lon="7.13864">
        <ele>871.4</ele>
        <time>2019-02-27T10:23:13.000Z</time>
      </trkpt>
      <trkpt lat="47.88405" lon="7.13838">
        <ele>863.61</ele>
        <time>2019-02-27T10:23:31.000Z</time>
      </trkpt>
      <trkpt lat="47.88416" lon="7.13808">
        <ele>796.48</ele>
        <time>2019-02-27T10:23:49.000Z</time>
      </trkpt>
      <trkpt lat="47.88422" lon="7.13785">
        <ele>857.88</ele>
        <time>2019-02-27T10:24:07.000Z</time>
      </trkpt>
      <trkpt lat="47.88426" lon="7.13758">
        <ele>747.91</ele>
        <time>2019-02-27T10:24:25.000Z</time>
      </trkpt>
      <trkpt lat="47.88433" lon="7.13733">
        <ele>855.84</ele>
        <time>2019-02-27T10:24:43.000Z</time>
      </trkpt>
      <trkpt lat="47.8844" lon="7.13725">
        <ele>857.3</ele>
        <time>2019-02-27T10:25:01.000Z</time>
      </trkpt>
      <trkpt lat="47.88442" lon="7.13722">
        <ele>866.22</ele>
        <time>2019-02-27T10:26:13.000Z</time>
      </trkpt>
      <trkpt lat="47.88458" lon="7.13701">
        <ele>867</ele>
        <time>2019-02-27T10:26:31.000Z</time>
      </trkpt>
      <trkpt lat="47.88478" lon="7.13699">
        <ele>869.14</ele>
        <time>2019-02-27T10:26:49.000Z</time>
      </trkpt>
      <trkpt lat="47.88498" lon="7.13696">
        <ele>878.73</ele>
        <time>2019-02-27T10:27:07.000Z</time>
      </trkpt>
      <trkpt lat="47.88521" lon="7.13681">
        <ele>831.81</ele>
        <time>2019-02-27T10:27:25.000Z</time>
      </trkpt>
      <trkpt lat="47.8854" lon="7.13659">
        <ele>881.19</ele>
        <time>2019-02-27T10:27:43.000Z</time>
      </trkpt>
      <trkpt lat="47.88545" lon="7.13623">
        <ele>889</ele>
        <time>2019-02-27T10:28:01.000Z</time>
      </trkpt>
      <trkpt lat="47.88529" lon="7.13596">
        <ele>882.24</ele>
        <time>2019-02-27T10:28:19.000Z</time>
      </trkpt>
      <trkpt lat="47.88516" lon="7.13569">
        <ele>876.96</ele>
        <time>2019-02-27T10:28:37.000Z</time>
      </trkpt>
      <trkpt lat="47.88504" lon="7.13541">
        <ele>876.64</ele>
        <time>2019-02-27T10:28:55.000Z</time>
      </trkpt>
      <trkpt lat="47.88496" lon="7.13522">
        <ele>878.4</ele>
        <time>2019-02-27T10:29:13.000Z</time>
      </trkpt>
      <trkpt lat="47.88482" lon="7.13502">
        <ele>877.77</ele>
        <time>2019-02-27T10:29:31.000Z</time>
      </trkpt>
      <trkpt lat="47.88472" lon="7.13478">
        <ele>881.89</ele>
        <time>2019-02-27T10:29:49.000Z</time>
      </trkpt>
      <trkpt lat="47.88464" lon="7.13449">
        <ele>881.53</ele>
        <time>2019-02-27T10:30:07.000Z</time>
      </trkpt>
      <trkpt lat="47.88446" lon="7.13431">
        <ele>886.78</ele>
        <time>2019-02-27T10:30:25.000Z</time>
      </trkpt>
      <trkpt lat="47.8844" lon="7.13405">
        <ele>894.84</ele>
        <time>2019-02-27T10:30:43.000Z</time>
      </trkpt>
      <trkpt lat="47.88413" lon="7.13372">
        <ele>884.99</ele>
        <time>2019-02-27T10:31:01.000Z</time>
      </trkpt>
      <trkpt lat="47.88396" lon="7.1336">
        <ele>878.14</ele>
        <time>2019-02-27T10:31:19.000Z</time>
      </trkpt>
      <trkpt lat="47.88376" lon="7.13349">
        <ele>876.24</ele>
        <time>2019-02-27T10:31:37.000Z</time>
      </trkpt>
      <trkpt lat="47.88359" lon="7.1334">
        <ele>875.5</ele>
        <time>2019-02-27T10:31:54.000Z</time>
      </trkpt>
      <trkpt lat="47.88347" lon="7.13349">
        <ele>878.83</ele>
        <time>2019-02-27T10:32:12.000Z</time>
      </trkpt>
      <trkpt lat="47.88343" lon="7.13357">
        <ele>876.59</ele>
        <time>2019-02-27T10:32:30.000Z</time>
      </trkpt>
      <trkpt lat="47.88338" lon="7.13359">
        <ele>878.52</ele>
        <time>2019-02-27T10:32:48.000Z</time>
      </trkpt>
      <trkpt lat="47.88338" lon="7.13361">
        <ele>877.17</ele>
        <time>2019-02-27T10:33:06.000Z</time>
      </trkpt>
      <trkpt lat="47.88336" lon="7.13353">
        <ele>866.87</ele>
        <time>2019-02-27T10:38:12.000Z</time>
      </trkpt>
      <trkpt lat="47.88328" lon="7.13347">
        <ele>878.15</ele>
        <time>2019-02-27T10:38:30.000Z</time>
      </trkpt>
      <trkpt lat="47.88318" lon="7.13327">
        <ele>885.83</ele>
        <time>2019-02-27T10:38:48.000Z</time>
      </trkpt>
      <trkpt lat="47.88307" lon="7.13291">
        <ele>888.28</ele>
        <time>2019-02-27T10:39:06.000Z</time>
      </trkpt>
      <trkpt lat="47.883" lon="7.13258">
        <ele>896.43</ele>
        <time>2019-02-27T10:39:24.000Z</time>
      </trkpt>
      <trkpt lat="47.88288" lon="7.13238">
        <ele>899.2</ele>
        <time>2019-02-27T10:39:42.000Z</time>
      </trkpt>
      <trkpt lat="47.88268" lon="7.13211">
        <ele>899.51</ele>
        <time>2019-02-27T10:40:00.000Z</time>
      </trkpt>
      <trkpt lat="47.88254" lon="7.13189">
        <ele>825.99</ele>
        <time>2019-02-27T10:40:18.000Z</time>
      </trkpt>
      <trkpt lat="47.8824" lon="7.13164">
        <ele>837.63</ele>
        <time>2019-02-27T10:40:36.000Z</time>
      </trkpt>
      <trkpt lat="47.88218" lon="7.13134">
        <ele>880.48</ele>
        <time>2019-02-27T10:40:54.000Z</time>
      </trkpt>
      <trkpt lat="47.88198" lon="7.13115">
        <ele>896.53</ele>
        <time>2019-02-27T10:41:12.000Z</time>
      </trkpt>
      <trkpt lat="47.88182" lon="7.13096">
        <ele>899.79</ele>
        <time>2019-02-27T10:41:30.000Z</time>
      </trkpt>
      <trkpt lat="47.88163" lon="7.1307">
        <ele>902.03</ele>
        <time>2019-02-27T10:41:48.000Z</time>
      </trkpt>
      <trkpt lat="47.88148" lon="7.1304">
        <ele>900.43</ele>
        <time>2019-02-27T10:42:06.000Z</time>
      </trkpt>
      <trkpt lat="47.88136" lon="7.13023">
        <ele>902.77</ele>
        <time>2019-02-27T10:42:24.000Z</time>
      </trkpt>
      <trkpt lat="47.88127" lon="7.13009">
        <ele>904.05</ele>
        <time>2019-02-27T10:42:42.000Z</time>
      </trkpt>
      <trkpt lat="47.88107" lon="7.12982">
        <ele>875.29</ele>
        <time>2019-02-27T10:43:00.000Z</time>
      </trkpt>
      <trkpt lat="47.88102" lon="7.12961">
        <ele>822.59</ele>
        <time>2019-02-27T10:43:18.000Z</time>
      </trkpt>
      <trkpt lat="47.88101" lon="7.12953">
        <ele>910.7</ele>
        <time>2019-02-27T10:43:36.000Z</time>
      </trkpt>
      <trkpt lat="47.88095" lon="7.12925">
        <ele>918.53</ele>
        <time>2019-02-27T10:43:54.000Z</time>
      </trkpt>
      <trkpt lat="47.88088" lon="7.12912">
        <ele>908.12</ele>
        <time>2019-02-27T10:44:12.000Z</time>
      </trkpt>
      <trkpt lat="47.88086" lon="7.1291">
        <ele>906.98</ele>
        <time>2019-02-27T10:45:24.000Z</time>
      </trkpt>
      <trkpt lat="47.88063" lon="7.12894">
        <ele>910.59</ele>
        <time>2019-02-27T10:45:42.000Z</time>
      </trkpt>
      <trkpt lat="47.8804" lon="7.12885">
        <ele>910.51</ele>
        <time>2019-02-27T10:46:00.000Z</time>
      </trkpt>
      <trkpt lat="47.88031" lon="7.12883">
        <ele>904.85</ele>
        <time>2019-02-27T10:46:18.000Z</time>
      </trkpt>
      <trkpt lat="47.88014" lon="7.12873">
        <ele>898.67</ele>
        <time>2019-02-27T10:46:36.000Z</time>
      </trkpt>
      <trkpt lat="47.87992" lon="7.12863">
        <ele>896.4</ele>
        <time>2019-02-27T10:46:54.000Z</time>
      </trkpt>
      <trkpt lat="47.87975" lon="7.12853">
        <ele>894.41</ele>
        <time>2019-02-27T10:47:12.000Z</time>
      </trkpt>
      <trkpt lat="47.87956" lon="7.12839">
        <ele>891.46</ele>
        <time>2019-02-27T10:47:30.000Z</time>
      </trkpt>
      <trkpt lat="47.87944" lon="7.12825">
        <ele>891.97</ele>
        <time>2019-02-27T10:47:48.000Z</time>
      </trkpt>
      <trkpt lat="47.87928" lon="7.12813">
        <ele>889.99</ele>
        <time>2019-02-27T10:48:06.000Z</time>
      </trkpt>
      <trkpt lat="47.8792" lon="7.12803">
        <ele>887.32</ele>
        <time>2019-02-27T10:48:24.000Z</time>
      </trkpt>
      <trkpt lat="47.87903" lon="7.12789">
        <ele>824.55</ele>
        <time>2019-02-27T10:48:42.000Z</time>
      </trkpt>
      <trkpt lat="47.87885" lon="7.12784">
        <ele>869.48</ele>
        <time>2019-02-27T10:49:00.000Z</time>
      </trkpt>
      <trkpt lat="47.87867" lon="7.12774">
        <ele>868.96</ele>
        <time>2019-02-27T10:49:18.000Z</time>
      </trkpt>
      <trkpt lat="47.87849" lon="7.12766">
        <ele>874.57</ele>
        <time>2019-02-27T10:49:36.000Z</time>
      </trkpt>
      <trkpt lat="47.87847" lon="7.12754">
        <ele>853.26</ele>
        <time>2019-02-27T10:49:54.000Z</time>
      </trkpt>
      <trkpt lat="47.87822" lon="7.1275">
        <ele>861.36</ele>
        <time>2019-02-27T10:50:12.000Z</time>
      </trkpt>
      <trkpt lat="47.87805" lon="7.12741">
        <ele>862.23</ele>
        <time>2019-02-27T10:50:29.000Z</time>
      </trkpt>
      <trkpt lat="47.87795" lon="7.12742">
        <ele>864.42</ele>
        <time>2019-02-27T10:50:47.000Z</time>
      </trkpt>
      <trkpt lat="47.87778" lon="7.12736">
        <ele>862.31</ele>
        <time>2019-02-27T10:51:05.000Z</time>
      </trkpt>
      <trkpt lat="47.87765" lon="7.12727">
        <ele>866.98</ele>
        <time>2019-02-27T10:51:23.000Z</time>
      </trkpt>
      <trkpt lat="47.87748" lon="7.12719">
        <ele>858.48</ele>
        <time>2019-02-27T10:51:41.000Z</time>
      </trkpt>
      <trkpt lat="47.87732" lon="7.12721">
        <ele>860.48</ele>
        <time>2019-02-27T10:51:59.000Z</time>
      </trkpt>
      <trkpt lat="47.87712" lon="7.12736">
        <ele>858.24</ele>
        <time>2019-02-27T10:52:17.000Z</time>
      </trkpt>
      <trkpt lat="47.87706" lon="7.12744">
        <ele>862.54</ele>
        <time>2019-02-27T10:52:35.000Z</time>
      </trkpt>
      <trkpt lat="47.87684" lon="7.12752">
        <ele>855.72</ele>
        <time>2019-02-27T10:52:53.000Z</time>
      </trkpt>
      <trkpt lat="47.87673" lon="7.12752">
        <ele>851.34</ele>
        <time>2019-02-27T10:53:11.000Z</time>
      </trkpt>
      <trkpt lat="47.8766" lon="7.12747">
        <ele>851.04</ele>
        <time>2019-02-27T10:53:29.000Z</time>
      </trkpt>
      <trkpt lat="47.87644" lon="7.12736">
        <ele>851.83</ele>
        <time>2019-02-27T10:53:47.000Z</time>
      </trkpt>
      <trkpt lat="47.87626" lon="7.12726">
        <ele>844.54</ele>
        <time>2019-02-27T10:54:05.000Z</time>
      </trkpt>
      <trkpt lat="47.87614" lon="7.12714">
        <ele>839.78</ele>
        <time>2019-02-27T10:54:23.000Z</time>
      </trkpt>
      <trkpt lat="47.87613" lon="7.12712">
        <ele>836.03</ele>
        <time>2019-02-27T10:54:41.000Z</time>
      </trkpt>
      <trkpt lat="47.87614" lon="7.12712">
        <ele>836.51</ele>
        <time>2019-02-27T10:54:59.000Z</time>
      </trkpt>
      <trkpt lat="47.87603" lon="7.12709">
        <ele>837.09</ele>
        <time>2019-02-27T10:55:17.000Z</time>
      </trkpt>
      <trkpt lat="47.87588" lon="7.12707">
        <ele>837.03</ele>
        <time>2019-02-27T10:55:35.000Z</time>
      </trkpt>
      <trkpt lat="47.8758" lon="7.12701">
        <ele>830.26</ele>
        <time>2019-02-27T10:55:53.000Z</time>
      </trkpt>
      <trkpt lat="47.87574" lon="7.12709">
        <ele>828.97</ele>
        <time>2019-02-27T10:56:29.000Z</time>
      </trkpt>
      <trkpt lat="47.87562" lon="7.1272">
        <ele>830.82</ele>
        <time>2019-02-27T10:56:47.000Z</time>
      </trkpt>
      <trkpt lat="47.87557" lon="7.12732">
        <ele>828.2</ele>
        <time>2019-02-27T10:57:05.000Z</time>
      </trkpt>
      <trkpt lat="47.87555" lon="7.12738">
        <ele>827.49</ele>
        <time>2019-02-27T10:57:23.000Z</time>
      </trkpt>
      <trkpt lat="47.87556" lon="7.1274">
        <ele>830.66</ele>
        <time>2019-02-27T10:57:59.000Z</time>
      </trkpt>
      <trkpt lat="47.87547" lon="7.12739">
        <ele>828.41</ele>
        <time>2019-02-27T10:58:17.000Z</time>
      </trkpt>
      <trkpt lat="47.87538" lon="7.12738">
        <ele>828.6</ele>
        <time>2019-02-27T10:58:35.000Z</time>
      </trkpt>
      <trkpt lat="47.87538" lon="7.12739">
        <ele>826.2</ele>
        <time>2019-02-27T11:00:59.000Z</time>
      </trkpt>
      <trkpt lat="47.87536" lon="7.12737">
        <ele>826.73</ele>
        <time>2019-02-27T11:06:41.000Z</time>
      </trkpt>
      <trkpt lat="47.87524" lon="7.12723">
        <ele>826.38</ele>
        <time>2019-02-27T11:06:59.000Z</time>
      </trkpt>
      <trkpt lat="47.87516" lon="7.12718">
        <ele>827.87</ele>
        <time>2019-02-27T11:07:17.000Z</time>
      </trkpt>
      <trkpt lat="47.87506" lon="7.12707">
        <ele>832.33</ele>
        <time>2019-02-27T11:07:35.000Z</time>
      </trkpt>
      <trkpt lat="47.87492" lon="7.12697">
        <ele>835.15</ele>
        <time>2019-02-27T11:07:53.000Z</time>
      </trkpt>
      <trkpt lat="47.87472" lon="7.12689">
        <ele>838.38</ele>
        <time>2019-02-27T11:08:11.000Z</time>
      </trkpt>
      <trkpt lat="47.87455" lon="7.12687">
        <ele>841.48</ele>
        <time>2019-02-27T11:08:29.000Z</time>
      </trkpt>
      <trkpt lat="47.8745" lon="7.12677">
        <ele>841.28</ele>
        <time>2019-02-27T11:08:47.000Z</time>
      </trkpt>
      <trkpt lat="47.87433" lon="7.12676">
        <ele>852.27</ele>
        <time>2019-02-27T11:10:34.000Z</time>
      </trkpt>
      <trkpt lat="47.87416" lon="7.12668">
        <ele>848.81</ele>
        <time>2019-02-27T11:10:52.000Z</time>
      </trkpt>
      <trkpt lat="47.87399" lon="7.12659">
        <ele>850.42</ele>
        <time>2019-02-27T11:11:10.000Z</time>
      </trkpt>
      <trkpt lat="47.87382" lon="7.12643">
        <ele>850.16</ele>
        <time>2019-02-27T11:11:28.000Z</time>
      </trkpt>
      <trkpt lat="47.87353" lon="7.12639">
        <ele>846.86</ele>
        <time>2019-02-27T11:11:46.000Z</time>
      </trkpt>
      <trkpt lat="47.87335" lon="7.12648">
        <ele>849.76</ele>
        <time>2019-02-27T11:12:04.000Z</time>
      </trkpt>
      <trkpt lat="47.87321" lon="7.12662">
        <ele>849.84</ele>
        <time>2019-02-27T11:12:22.000Z</time>
      </trkpt>
      <trkpt lat="47.87311" lon="7.12686">
        <ele>853.28</ele>
        <time>2019-02-27T11:12:40.000Z</time>
      </trkpt>
      <trkpt lat="47.87311" lon="7.12714">
        <ele>855.35</ele>
        <time>2019-02-27T11:12:58.000Z</time>
      </trkpt>
      <trkpt lat="47.87311" lon="7.12755">
        <ele>857.4</ele>
        <time>2019-02-27T11:13:16.000Z</time>
      </trkpt>
      <trkpt lat="47.873" lon="7.12766">
        <ele>859.13</ele>
        <time>2019-02-27T11:13:34.000Z</time>
      </trkpt>
      <trkpt lat="47.87295" lon="7.12757">
        <ele>861.14</ele>
        <time>2019-02-27T11:13:52.000Z</time>
      </trkpt>
      <trkpt lat="47.87273" lon="7.1274">
        <ele>861.28</ele>
        <time>2019-02-27T11:14:10.000Z</time>
      </trkpt>
      <trkpt lat="47.87252" lon="7.1274">
        <ele>866.27</ele>
        <time>2019-02-27T11:14:28.000Z</time>
      </trkpt>
      <trkpt lat="47.87234" lon="7.1274">
        <ele>866.04</ele>
        <time>2019-02-27T11:14:46.000Z</time>
      </trkpt>
      <trkpt lat="47.87222" lon="7.12723">
        <ele>867.07</ele>
        <time>2019-02-27T11:15:04.000Z</time>
      </trkpt>
      <trkpt lat="47.87201" lon="7.12712">
        <ele>870.58</ele>
        <time>2019-02-27T11:15:22.000Z</time>
      </trkpt>
      <trkpt lat="47.87184" lon="7.12693">
        <ele>875.31</ele>
        <time>2019-02-27T11:15:40.000Z</time>
      </trkpt>
      <trkpt lat="47.87171" lon="7.12678">
        <ele>873.05</ele>
        <time>2019-02-27T11:15:58.000Z</time>
      </trkpt>
      <trkpt lat="47.87159" lon="7.12658">
        <ele>875.36</ele>
        <time>2019-02-27T11:16:16.000Z</time>
      </trkpt>
      <trkpt lat="47.87152" lon="7.1264">
        <ele>875.5</ele>
        <time>2019-02-27T11:16:34.000Z</time>
      </trkpt>
      <trkpt lat="47.87146" lon="7.12616">
        <ele>877.27</ele>
        <time>2019-02-27T11:16:52.000Z</time>
      </trkpt>
      <trkpt lat="47.87132" lon="7.12595">
        <ele>880.38</ele>
        <time>2019-02-27T11:17:10.000Z</time>
      </trkpt>
      <trkpt lat="47.87125" lon="7.12577">
        <ele>883.91</ele>
        <time>2019-02-27T11:17:27.000Z</time>
      </trkpt>
      <trkpt lat="47.87107" lon="7.12562">
        <ele>884.89</ele>
        <time>2019-02-27T11:17:45.000Z</time>
      </trkpt>
      <trkpt lat="47.87091" lon="7.12546">
        <ele>887.1</ele>
        <time>2019-02-27T11:18:03.000Z</time>
      </trkpt>
      <trkpt lat="47.87085" lon="7.12531">
        <ele>891.81</ele>
        <time>2019-02-27T11:18:21.000Z</time>
      </trkpt>
      <trkpt lat="47.87078" lon="7.12517">
        <ele>895.63</ele>
        <time>2019-02-27T11:18:39.000Z</time>
      </trkpt>
      <trkpt lat="47.87064" lon="7.12504">
        <ele>894.87</ele>
        <time>2019-02-27T11:18:57.000Z</time>
      </trkpt>
      <trkpt lat="47.87057" lon="7.12485">
        <ele>898.62</ele>
        <time>2019-02-27T11:19:15.000Z</time>
      </trkpt>
      <trkpt lat="47.87047" lon="7.12465">
        <ele>902.51</ele>
        <time>2019-02-27T11:19:33.000Z</time>
      </trkpt>
      <trkpt lat="47.8704" lon="7.12453">
        <ele>909.99</ele>
        <time>2019-02-27T11:19:51.000Z</time>
      </trkpt>
      <trkpt lat="47.87024" lon="7.12455">
        <ele>912.73</ele>
        <time>2019-02-27T11:20:09.000Z</time>
      </trkpt>
      <trkpt lat="47.87022" lon="7.1247">
        <ele>914.78</ele>
        <time>2019-02-27T11:20:27.000Z</time>
      </trkpt>
      <trkpt lat="47.8702" lon="7.12477">
        <ele>916.68</ele>
        <time>2019-02-27T11:20:45.000Z</time>
      </trkpt>
      <trkpt lat="47.87017" lon="7.12491">
        <ele>915.27</ele>
        <time>2019-02-27T11:21:03.000Z</time>
      </trkpt>
      <trkpt lat="47.87018" lon="7.125">
        <ele>909.04</ele>
        <time>2019-02-27T11:21:21.000Z</time>
      </trkpt>
      <trkpt lat="47.8702" lon="7.12507">
        <ele>918.87</ele>
        <time>2019-02-27T11:21:39.000Z</time>
      </trkpt>
      <trkpt lat="47.87018" lon="7.12511">
        <ele>920.23</ele>
        <time>2019-02-27T11:22:33.000Z</time>
      </trkpt>
      <trkpt lat="47.87021" lon="7.12511">
        <ele>920.71</ele>
        <time>2019-02-27T11:23:09.000Z</time>
      </trkpt>
      <trkpt lat="47.87025" lon="7.12511">
        <ele>919.12</ele>
        <time>2019-02-27T11:23:27.000Z</time>
      </trkpt>
      <trkpt lat="47.87026" lon="7.12509">
        <ele>917.79</ele>
        <time>2019-02-27T11:23:45.000Z</time>
      </trkpt>
      <trkpt lat="47.87026" lon="7.12508">
        <ele>922.77</ele>
        <time>2019-02-27T11:24:21.000Z</time>
      </trkpt>
      <trkpt lat="47.8703" lon="7.125">
        <ele>924.17</ele>
        <time>2019-02-27T11:24:39.000Z</time>
      </trkpt>
      <trkpt lat="47.87028" lon="7.12492">
        <ele>923.52</ele>
        <time>2019-02-27T11:24:57.000Z</time>
      </trkpt>
      <trkpt lat="47.87031" lon="7.12494">
        <ele>924.46</ele>
        <time>2019-02-27T11:25:33.000Z</time>
      </trkpt>
      <trkpt lat="47.87035" lon="7.12493">
        <ele>926.06</ele>
        <time>2019-02-27T11:25:51.000Z</time>
      </trkpt>
      <trkpt lat="47.87036" lon="7.12493">
        <ele>926.77</ele>
        <time>2019-02-27T11:26:09.000Z</time>
      </trkpt>
      <trkpt lat="47.87036" lon="7.12497">
        <ele>927.78</ele>
        <time>2019-02-27T11:28:15.000Z</time>
      </trkpt>
      <trkpt lat="47.87036" lon="7.12493">
        <ele>927.14</ele>
        <time>2019-02-27T11:28:31.000Z</time>
      </trkpt>
      <trkpt lat="47.87033" lon="7.12488">
        <ele>924.47</ele>
        <time>2019-02-27T11:29:25.000Z</time>
      </trkpt>
      <trkpt lat="47.87031" lon="7.12488">
        <ele>923.45</ele>
        <time>2019-02-27T11:29:43.000Z</time>
      </trkpt>
      <trkpt lat="47.87036" lon="7.1249">
        <ele>924.8</ele>
        <time>2019-02-27T11:30:00.000Z</time>
      </trkpt>
      <trkpt lat="47.87034" lon="7.1249">
        <ele>924.84</ele>
        <time>2019-02-27T11:30:18.000Z</time>
      </trkpt>
      <trkpt lat="47.87036" lon="7.1249">
        <ele>924.66</ele>
        <time>2019-02-27T11:30:36.000Z</time>
      </trkpt>
      <trkpt lat="47.87035" lon="7.12491">
        <ele>923.93</ele>
        <time>2019-02-27T11:31:12.000Z</time>
      </trkpt>
      <trkpt lat="47.87033" lon="7.12491">
        <ele>924.2</ele>
        <time>2019-02-27T11:31:30.000Z</time>
      </trkpt>
      <trkpt lat="47.87031" lon="7.12492">
        <ele>924.23</ele>
        <time>2019-02-27T11:32:06.000Z</time>
      </trkpt>
      <trkpt lat="47.8703" lon="7.12495">
        <ele>924.09</ele>
        <time>2019-02-27T11:33:36.000Z</time>
      </trkpt>
      <trkpt lat="47.87028" lon="7.12498">
        <ele>922.9</ele>
        <time>2019-02-27T11:33:54.000Z</time>
      </trkpt>
      <trkpt lat="47.87028" lon="7.12501">
        <ele>922.29</ele>
        <time>2019-02-27T11:34:12.000Z</time>
      </trkpt>
      <trkpt lat="47.87027" lon="7.12503">
        <ele>921.83</ele>
        <time>2019-02-27T11:34:48.000Z</time>
      </trkpt>
      <trkpt lat="47.87026" lon="7.12502">
        <ele>923.41</ele>
        <time>2019-02-27T11:35:24.000Z</time>
      </trkpt>
      <trkpt lat="47.87024" lon="7.12503">
        <ele>924.47</ele>
        <time>2019-02-27T11:35:42.000Z</time>
      </trkpt>
      <trkpt lat="47.87026" lon="7.12504">
        <ele>924.38</ele>
        <time>2019-02-27T11:36:36.000Z</time>
      </trkpt>
      <trkpt lat="47.87025" lon="7.12515">
        <ele>923.27</ele>
        <time>2019-02-27T11:36:54.000Z</time>
      </trkpt>
      <trkpt lat="47.87023" lon="7.12513">
        <ele>923.52</ele>
        <time>2019-02-27T11:37:12.000Z</time>
      </trkpt>
      <trkpt lat="47.87029" lon="7.12513">
        <ele>923.29</ele>
        <time>2019-02-27T11:37:30.000Z</time>
      </trkpt>
      <trkpt lat="47.87026" lon="7.12516">
        <ele>922.21</ele>
        <time>2019-02-27T11:37:48.000Z</time>
      </trkpt>
      <trkpt lat="47.87025" lon="7.12516">
        <ele>920.54</ele>
        <time>2019-02-27T11:38:06.000Z</time>
      </trkpt>
      <trkpt lat="47.87024" lon="7.12516">
        <ele>920.04</ele>
        <time>2019-02-27T11:38:24.000Z</time>
      </trkpt>
      <trkpt lat="47.87016" lon="7.12507">
        <ele>916.81</ele>
        <time>2019-02-27T11:38:42.000Z</time>
      </trkpt>
      <trkpt lat="47.87015" lon="7.12499">
        <ele>910.96</ele>
        <time>2019-02-27T11:38:58.000Z</time>
      </trkpt>
      <trkpt lat="47.87014" lon="7.12495">
        <ele>914.04</ele>
        <time>2019-02-27T11:39:34.000Z</time>
      </trkpt>
      <trkpt lat="47.87016" lon="7.12487">
        <ele>911.98</ele>
        <time>2019-02-27T11:39:52.000Z</time>
      </trkpt>
      <trkpt lat="47.87024" lon="7.12475">
        <ele>918.08</ele>
        <time>2019-02-27T11:40:10.000Z</time>
      </trkpt>
      <trkpt lat="47.87029" lon="7.12456">
        <ele>918.79</ele>
        <time>2019-02-27T11:40:28.000Z</time>
      </trkpt>
      <trkpt lat="47.87026" lon="7.12436">
        <ele>914.42</ele>
        <time>2019-02-27T11:40:46.000Z</time>
      </trkpt>
      <trkpt lat="47.87025" lon="7.12406">
        <ele>911.62</ele>
        <time>2019-02-27T11:41:04.000Z</time>
      </trkpt>
      <trkpt lat="47.87017" lon="7.12374">
        <ele>902.49</ele>
        <time>2019-02-27T11:41:22.000Z</time>
      </trkpt>
      <trkpt lat="47.87001" lon="7.12357">
        <ele>897.7</ele>
        <time>2019-02-27T11:41:40.000Z</time>
      </trkpt>
      <trkpt lat="47.8699" lon="7.12353">
        <ele>897.37</ele>
        <time>2019-02-27T11:41:58.000Z</time>
      </trkpt>
      <trkpt lat="47.86983" lon="7.12338">
        <ele>894.2</ele>
        <time>2019-02-27T11:42:16.000Z</time>
      </trkpt>
      <trkpt lat="47.86969" lon="7.12327">
        <ele>889.93</ele>
        <time>2019-02-27T11:42:34.000Z</time>
      </trkpt>
      <trkpt lat="47.86961" lon="7.12316">
        <ele>893.45</ele>
        <time>2019-02-27T11:42:52.000Z</time>
      </trkpt>
      <trkpt lat="47.8695" lon="7.12306">
        <ele>888.67</ele>
        <time>2019-02-27T11:43:10.000Z</time>
      </trkpt>
      <trkpt lat="47.8695" lon="7.12301">
        <ele>889.87</ele>
        <time>2019-02-27T11:43:27.000Z</time>
      </trkpt>
      <trkpt lat="47.86947" lon="7.12299">
        <ele>890.15</ele>
        <time>2019-02-27T11:44:04.000Z</time>
      </trkpt>
      <trkpt lat="47.86946" lon="7.12298">
        <ele>888.77</ele>
        <time>2019-02-27T11:44:37.000Z</time>
      </trkpt>
      <trkpt lat="47.86943" lon="7.12293">
        <ele>887.54</ele>
        <time>2019-02-27T11:46:14.000Z</time>
      </trkpt>
      <trkpt lat="47.86935" lon="7.12278">
        <ele>884.64</ele>
        <time>2019-02-27T11:46:32.000Z</time>
      </trkpt>
      <trkpt lat="47.8692" lon="7.12265">
        <ele>881.53</ele>
        <time>2019-02-27T11:46:50.000Z</time>
      </trkpt>
      <trkpt lat="47.86907" lon="7.12261">
        <ele>874.25</ele>
        <time>2019-02-27T11:47:08.000Z</time>
      </trkpt>
      <trkpt lat="47.86904" lon="7.12267">
        <ele>871.24</ele>
        <time>2019-02-27T11:47:22.000Z</time>
      </trkpt>
      <trkpt lat="47.86903" lon="7.12267">
        <ele>870.71</ele>
        <time>2019-02-27T11:47:45.000Z</time>
      </trkpt>
      <trkpt lat="47.86901" lon="7.12269">
        <ele>870.13</ele>
        <time>2019-02-27T11:47:55.000Z</time>
      </trkpt>
      <trkpt lat="47.869" lon="7.12269">
        <ele>870.83</ele>
        <time>2019-02-27T11:48:05.000Z</time>
      </trkpt>
      <trkpt lat="47.86885" lon="7.12266">
        <ele>869.19</ele>
        <time>2019-02-27T11:48:29.000Z</time>
      </trkpt>
      <trkpt lat="47.86882" lon="7.12263">
        <ele>871.1</ele>
        <time>2019-02-27T11:48:47.000Z</time>
      </trkpt>
      <trkpt lat="47.86881" lon="7.12267">
        <ele>870.57</ele>
        <time>2019-02-27T11:49:06.000Z</time>
      </trkpt>
      <trkpt lat="47.86883" lon="7.12266">
        <ele>867.22</ele>
        <time>2019-02-27T11:54:23.000Z</time>
      </trkpt>
      <trkpt lat="47.86883" lon="7.12267">
        <ele>867.95</ele>
        <time>2019-02-27T11:54:41.000Z</time>
      </trkpt>
      <trkpt lat="47.86885" lon="7.12266">
        <ele>867.62</ele>
        <time>2019-02-27T11:55:17.000Z</time>
      </trkpt>
      <trkpt lat="47.86885" lon="7.12263">
        <ele>866.52</ele>
        <time>2019-02-27T11:55:53.000Z</time>
      </trkpt>
      <trkpt lat="47.86884" lon="7.12265">
        <ele>867.16</ele>
        <time>2019-02-27T11:56:47.000Z</time>
      </trkpt>
      <trkpt lat="47.86885" lon="7.12265">
        <ele>868.19</ele>
        <time>2019-02-27T11:57:23.000Z</time>
      </trkpt>
      <trkpt lat="47.86884" lon="7.12265">
        <ele>869.46</ele>
        <time>2019-02-27T11:57:41.000Z</time>
      </trkpt>
      <trkpt lat="47.86887" lon="7.12267">
        <ele>869.44</ele>
        <time>2019-02-27T11:57:59.000Z</time>
      </trkpt>
      <trkpt lat="47.86888" lon="7.12269">
        <ele>871.67</ele>
        <time>2019-02-27T11:58:53.000Z</time>
      </trkpt>
      <trkpt lat="47.86889" lon="7.1227">
        <ele>871.77</ele>
        <time>2019-02-27T12:00:41.000Z</time>
      </trkpt>
      <trkpt lat="47.86887" lon="7.12268">
        <ele>872.06</ele>
        <time>2019-02-27T12:00:59.000Z</time>
      </trkpt>
      <trkpt lat="47.86885" lon="7.12266">
        <ele>869.67</ele>
        <time>2019-02-27T12:01:35.000Z</time>
      </trkpt>
      <trkpt lat="47.86884" lon="7.12265">
        <ele>867.28</ele>
        <time>2019-02-27T12:01:53.000Z</time>
      </trkpt>
      <trkpt lat="47.86883" lon="7.12266">
        <ele>866.43</ele>
        <time>2019-02-27T12:02:11.000Z</time>
      </trkpt>
      <trkpt lat="47.86884" lon="7.12266">
        <ele>866.05</ele>
        <time>2019-02-27T12:02:29.000Z</time>
      </trkpt>
      <trkpt lat="47.86885" lon="7.12266">
        <ele>865.17</ele>
        <time>2019-02-27T12:04:53.000Z</time>
      </trkpt>
      <trkpt lat="47.86884" lon="7.12265">
        <ele>865.32</ele>
        <time>2019-02-27T12:14:11.000Z</time>
      </trkpt>
      <trkpt lat="47.86885" lon="7.12264">
        <ele>865.2</ele>
        <time>2019-02-27T12:22:52.000Z</time>
      </trkpt>
      <trkpt lat="47.86885" lon="7.12265">
        <ele>866</ele>
        <time>2019-02-27T12:29:28.000Z</time>
      </trkpt>
      <trkpt lat="47.86885" lon="7.12266">
        <ele>863.7</ele>
        <time>2019-02-27T12:30:04.000Z</time>
      </trkpt>
      <trkpt lat="47.86869" lon="7.12277">
        <ele>862.73</ele>
        <time>2019-02-27T12:30:58.000Z</time>
      </trkpt>
      <trkpt lat="47.86857" lon="7.12283">
        <ele>859.81</ele>
        <time>2019-02-27T12:31:16.000Z</time>
      </trkpt>
      <trkpt lat="47.86845" lon="7.12302">
        <ele>859.5</ele>
        <time>2019-02-27T12:31:34.000Z</time>
      </trkpt>
      <trkpt lat="47.86833" lon="7.1232">
        <ele>859.99</ele>
        <time>2019-02-27T12:31:52.000Z</time>
      </trkpt>
      <trkpt lat="47.86822" lon="7.12338">
        <ele>860.6</ele>
        <time>2019-02-27T12:32:10.000Z</time>
      </trkpt>
      <trkpt lat="47.8681" lon="7.12358">
        <ele>860.47</ele>
        <time>2019-02-27T12:32:28.000Z</time>
      </trkpt>
      <trkpt lat="47.86799" lon="7.12381">
        <ele>857.45</ele>
        <time>2019-02-27T12:32:46.000Z</time>
      </trkpt>
      <trkpt lat="47.86788" lon="7.12404">
        <ele>858.79</ele>
        <time>2019-02-27T12:33:04.000Z</time>
      </trkpt>
      <trkpt lat="47.8678" lon="7.12433">
        <ele>855.71</ele>
        <time>2019-02-27T12:33:22.000Z</time>
      </trkpt>
      <trkpt lat="47.86769" lon="7.12457">
        <ele>855.19</ele>
        <time>2019-02-27T12:33:40.000Z</time>
      </trkpt>
      <trkpt lat="47.86763" lon="7.12483">
        <ele>853.99</ele>
        <time>2019-02-27T12:33:58.000Z</time>
      </trkpt>
      <trkpt lat="47.86758" lon="7.1251">
        <ele>851.16</ele>
        <time>2019-02-27T12:34:16.000Z</time>
      </trkpt>
      <trkpt lat="47.86756" lon="7.1253">
        <ele>845.59</ele>
        <time>2019-02-27T12:34:34.000Z</time>
      </trkpt>
      <trkpt lat="47.8676" lon="7.12559">
        <ele>851.73</ele>
        <time>2019-02-27T12:34:52.000Z</time>
      </trkpt>
      <trkpt lat="47.8676" lon="7.12587">
        <ele>849.75</ele>
        <time>2019-02-27T12:35:10.000Z</time>
      </trkpt>
      <trkpt lat="47.86751" lon="7.1261">
        <ele>847.19</ele>
        <time>2019-02-27T12:35:28.000Z</time>
      </trkpt>
      <trkpt lat="47.86737" lon="7.12638">
        <ele>851.57</ele>
        <time>2019-02-27T12:35:46.000Z</time>
      </trkpt>
      <trkpt lat="47.86722" lon="7.12667">
        <ele>845.32</ele>
        <time>2019-02-27T12:36:04.000Z</time>
      </trkpt>
      <trkpt lat="47.86712" lon="7.12695">
        <ele>842.57</ele>
        <time>2019-02-27T12:36:22.000Z</time>
      </trkpt>
      <trkpt lat="47.86707" lon="7.12714">
        <ele>841.22</ele>
        <time>2019-02-27T12:36:40.000Z</time>
      </trkpt>
      <trkpt lat="47.86705" lon="7.1274">
        <ele>844.46</ele>
        <time>2019-02-27T12:36:58.000Z</time>
      </trkpt>
      <trkpt lat="47.86698" lon="7.12765">
        <ele>839.31</ele>
        <time>2019-02-27T12:37:16.000Z</time>
      </trkpt>
      <trkpt lat="47.86698" lon="7.12761">
        <ele>837.91</ele>
        <time>2019-02-27T12:37:52.000Z</time>
      </trkpt>
      <trkpt lat="47.86698" lon="7.12756">
        <ele>837.88</ele>
        <time>2019-02-27T12:38:10.000Z</time>
      </trkpt>
      <trkpt lat="47.86691" lon="7.1275">
        <ele>834.04</ele>
        <time>2019-02-27T12:38:28.000Z</time>
      </trkpt>
      <trkpt lat="47.8667" lon="7.12771">
        <ele>827.11</ele>
        <time>2019-02-27T12:38:46.000Z</time>
      </trkpt>
      <trkpt lat="47.86651" lon="7.12796">
        <ele>843.63</ele>
        <time>2019-02-27T12:39:04.000Z</time>
      </trkpt>
      <trkpt lat="47.86631" lon="7.12818">
        <ele>829.58</ele>
        <time>2019-02-27T12:39:22.000Z</time>
      </trkpt>
      <trkpt lat="47.86615" lon="7.12824">
        <ele>826.96</ele>
        <time>2019-02-27T12:39:40.000Z</time>
      </trkpt>
      <trkpt lat="47.86613" lon="7.12846">
        <ele>819.4</ele>
        <time>2019-02-27T12:39:58.000Z</time>
      </trkpt>
      <trkpt lat="47.86619" lon="7.12872">
        <ele>814.44</ele>
        <time>2019-02-27T12:40:16.000Z</time>
      </trkpt>
      <trkpt lat="47.86631" lon="7.12904">
        <ele>810.13</ele>
        <time>2019-02-27T12:40:34.000Z</time>
      </trkpt>
      <trkpt lat="47.86641" lon="7.12933">
        <ele>811.74</ele>
        <time>2019-02-27T12:40:52.000Z</time>
      </trkpt>
      <trkpt lat="47.86652" lon="7.12967">
        <ele>813.58</ele>
        <time>2019-02-27T12:41:10.000Z</time>
      </trkpt>
      <trkpt lat="47.86666" lon="7.12995">
        <ele>813</ele>
        <time>2019-02-27T12:41:28.000Z</time>
      </trkpt>
      <trkpt lat="47.86657" lon="7.1303">
        <ele>812.15</ele>
        <time>2019-02-27T12:41:46.000Z</time>
      </trkpt>
      <trkpt lat="47.8664" lon="7.1306">
        <ele>813.44</ele>
        <time>2019-02-27T12:42:04.000Z</time>
      </trkpt>
      <trkpt lat="47.86623" lon="7.13091">
        <ele>813.74</ele>
        <time>2019-02-27T12:42:22.000Z</time>
      </trkpt>
      <trkpt lat="47.86621" lon="7.13121">
        <ele>811.1</ele>
        <time>2019-02-27T12:42:40.000Z</time>
      </trkpt>
      <trkpt lat="47.8663" lon="7.13144">
        <ele>804.18</ele>
        <time>2019-02-27T12:42:58.000Z</time>
      </trkpt>
      <trkpt lat="47.86643" lon="7.13168">
        <ele>795.97</ele>
        <time>2019-02-27T12:43:16.000Z</time>
      </trkpt>
      <trkpt lat="47.86652" lon="7.13195">
        <ele>790.82</ele>
        <time>2019-02-27T12:43:34.000Z</time>
      </trkpt>
      <trkpt lat="47.8666" lon="7.13219">
        <ele>798.46</ele>
        <time>2019-02-27T12:43:52.000Z</time>
      </trkpt>
      <trkpt lat="47.8666" lon="7.13242">
        <ele>792.68</ele>
        <time>2019-02-27T12:44:10.000Z</time>
      </trkpt>
      <trkpt lat="47.8665" lon="7.13268">
        <ele>789.21</ele>
        <time>2019-02-27T12:44:28.000Z</time>
      </trkpt>
      <trkpt lat="47.86641" lon="7.13293">
        <ele>788.91</ele>
        <time>2019-02-27T12:44:46.000Z</time>
      </trkpt>
      <trkpt lat="47.86627" lon="7.13323">
        <ele>787.7</ele>
        <time>2019-02-27T12:45:04.000Z</time>
      </trkpt>
      <trkpt lat="47.86637" lon="7.13349">
        <ele>785.83</ele>
        <time>2019-02-27T12:45:22.000Z</time>
      </trkpt>
      <trkpt lat="47.86642" lon="7.13377">
        <ele>776.7</ele>
        <time>2019-02-27T12:45:40.000Z</time>
      </trkpt>
      <trkpt lat="47.86646" lon="7.13407">
        <ele>772.88</ele>
        <time>2019-02-27T12:45:58.000Z</time>
      </trkpt>
      <trkpt lat="47.86655" lon="7.1344">
        <ele>773.56</ele>
        <time>2019-02-27T12:46:16.000Z</time>
      </trkpt>
      <trkpt lat="47.86646" lon="7.13473">
        <ele>773.45</ele>
        <time>2019-02-27T12:46:34.000Z</time>
      </trkpt>
      <trkpt lat="47.8664" lon="7.13507">
        <ele>771.97</ele>
        <time>2019-02-27T12:46:52.000Z</time>
      </trkpt>
      <trkpt lat="47.8663" lon="7.13531">
        <ele>771.29</ele>
        <time>2019-02-27T12:47:10.000Z</time>
      </trkpt>
      <trkpt lat="47.8662" lon="7.13563">
        <ele>765.95</ele>
        <time>2019-02-27T12:47:28.000Z</time>
      </trkpt>
      <trkpt lat="47.86607" lon="7.13594">
        <ele>761.79</ele>
        <time>2019-02-27T12:47:46.000Z</time>
      </trkpt>
      <trkpt lat="47.86579" lon="7.13604">
        <ele>756.04</ele>
        <time>2019-02-27T12:48:04.000Z</time>
      </trkpt>
      <trkpt lat="47.86558" lon="7.13594">
        <ele>756.93</ele>
        <time>2019-02-27T12:48:23.000Z</time>
      </trkpt>
      <trkpt lat="47.86532" lon="7.13597">
        <ele>755.47</ele>
        <time>2019-02-27T12:48:41.000Z</time>
      </trkpt>
      <trkpt lat="47.86547" lon="7.13607">
        <ele>749.03</ele>
        <time>2019-02-27T12:48:59.000Z</time>
      </trkpt>
      <trkpt lat="47.86569" lon="7.13609">
        <ele>745.98</ele>
        <time>2019-02-27T12:49:17.000Z</time>
      </trkpt>
      <trkpt lat="47.86592" lon="7.1361">
        <ele>747.63</ele>
        <time>2019-02-27T12:49:35.000Z</time>
      </trkpt>
      <trkpt lat="47.86615" lon="7.13605">
        <ele>750.96</ele>
        <time>2019-02-27T12:49:53.000Z</time>
      </trkpt>
      <trkpt lat="47.86633" lon="7.13588">
        <ele>751.04</ele>
        <time>2019-02-27T12:50:11.000Z</time>
      </trkpt>
      <trkpt lat="47.86645" lon="7.13568">
        <ele>748.11</ele>
        <time>2019-02-27T12:50:29.000Z</time>
      </trkpt>
      <trkpt lat="47.8666" lon="7.13539">
        <ele>750.58</ele>
        <time>2019-02-27T12:50:47.000Z</time>
      </trkpt>
      <trkpt lat="47.86684" lon="7.13521">
        <ele>745.92</ele>
        <time>2019-02-27T12:51:05.000Z</time>
      </trkpt>
      <trkpt lat="47.86704" lon="7.13499">
        <ele>750.24</ele>
        <time>2019-02-27T12:51:23.000Z</time>
      </trkpt>
      <trkpt lat="47.86714" lon="7.13482">
        <ele>746.71</ele>
        <time>2019-02-27T12:51:41.000Z</time>
      </trkpt>
      <trkpt lat="47.86719" lon="7.13453">
        <ele>745.44</ele>
        <time>2019-02-27T12:51:59.000Z</time>
      </trkpt>
      <trkpt lat="47.86713" lon="7.13412">
        <ele>751.28</ele>
        <time>2019-02-27T12:52:17.000Z</time>
      </trkpt>
      <trkpt lat="47.86701" lon="7.13384">
        <ele>747.75</ele>
        <time>2019-02-27T12:52:35.000Z</time>
      </trkpt>
      <trkpt lat="47.867" lon="7.13348">
        <ele>750.04</ele>
        <time>2019-02-27T12:52:53.000Z</time>
      </trkpt>
      <trkpt lat="47.86711" lon="7.13308">
        <ele>753.36</ele>
        <time>2019-02-27T12:53:11.000Z</time>
      </trkpt>
      <trkpt lat="47.86727" lon="7.1328">
        <ele>750.28</ele>
        <time>2019-02-27T12:53:29.000Z</time>
      </trkpt>
      <trkpt lat="47.86739" lon="7.13262">
        <ele>747.66</ele>
        <time>2019-02-27T12:53:47.000Z</time>
      </trkpt>
      <trkpt lat="47.86745" lon="7.13238">
        <ele>743.5</ele>
        <time>2019-02-27T12:54:05.000Z</time>
      </trkpt>
      <trkpt lat="47.86749" lon="7.13209">
        <ele>745.28</ele>
        <time>2019-02-27T12:54:23.000Z</time>
      </trkpt>
      <trkpt lat="47.86768" lon="7.13183">
        <ele>745.91</ele>
        <time>2019-02-27T12:54:41.000Z</time>
      </trkpt>
      <trkpt lat="47.86784" lon="7.13158">
        <ele>746.99</ele>
        <time>2019-02-27T12:54:59.000Z</time>
      </trkpt>
      <trkpt lat="47.86792" lon="7.13132">
        <ele>744.56</ele>
        <time>2019-02-27T12:55:17.000Z</time>
      </trkpt>
      <trkpt lat="47.86808" lon="7.13111">
        <ele>744.79</ele>
        <time>2019-02-27T12:55:35.000Z</time>
      </trkpt>
      <trkpt lat="47.86823" lon="7.13085">
        <ele>744</ele>
        <time>2019-02-27T12:55:53.000Z</time>
      </trkpt>
      <trkpt lat="47.86832" lon="7.13057">
        <ele>744.15</ele>
        <time>2019-02-27T12:56:11.000Z</time>
      </trkpt>
      <trkpt lat="47.86854" lon="7.13043">
        <ele>743.4</ele>
        <time>2019-02-27T12:56:29.000Z</time>
      </trkpt>
      <trkpt lat="47.86881" lon="7.13055">
        <ele>735.95</ele>
        <time>2019-02-27T12:56:47.000Z</time>
      </trkpt>
      <trkpt lat="47.86901" lon="7.13092">
        <ele>741.52</ele>
        <time>2019-02-27T12:57:05.000Z</time>
      </trkpt>
      <trkpt lat="47.86919" lon="7.13112">
        <ele>764.62</ele>
        <time>2019-02-27T12:57:23.000Z</time>
      </trkpt>
      <trkpt lat="47.86921" lon="7.13142">
        <ele>731.81</ele>
        <time>2019-02-27T12:57:41.000Z</time>
      </trkpt>
      <trkpt lat="47.86917" lon="7.13176">
        <ele>722.52</ele>
        <time>2019-02-27T12:57:59.000Z</time>
      </trkpt>
      <trkpt lat="47.86919" lon="7.13202">
        <ele>744.28</ele>
        <time>2019-02-27T12:58:17.000Z</time>
      </trkpt>
      <trkpt lat="47.86921" lon="7.13231">
        <ele>783.91</ele>
        <time>2019-02-27T12:58:35.000Z</time>
      </trkpt>
      <trkpt lat="47.86931" lon="7.13254">
        <ele>722.28</ele>
        <time>2019-02-27T12:58:53.000Z</time>
      </trkpt>
      <trkpt lat="47.86935" lon="7.13284">
        <ele>713.69</ele>
        <time>2019-02-27T12:59:11.000Z</time>
      </trkpt>
      <trkpt lat="47.86935" lon="7.13318">
        <ele>716.08</ele>
        <time>2019-02-27T12:59:29.000Z</time>
      </trkpt>
      <trkpt lat="47.86932" lon="7.13349">
        <ele>706.2</ele>
        <time>2019-02-27T12:59:47.000Z</time>
      </trkpt>
      <trkpt lat="47.86932" lon="7.13375">
        <ele>703.62</ele>
        <time>2019-02-27T13:00:05.000Z</time>
      </trkpt>
      <trkpt lat="47.86939" lon="7.13393">
        <ele>715.18</ele>
        <time>2019-02-27T13:00:23.000Z</time>
      </trkpt>
      <trkpt lat="47.86939" lon="7.13395">
        <ele>728.33</ele>
        <time>2019-02-27T13:00:41.000Z</time>
      </trkpt>
      <trkpt lat="47.86937" lon="7.13418">
        <ele>710.28</ele>
        <time>2019-02-27T13:00:57.000Z</time>
      </trkpt>
      <trkpt lat="47.86942" lon="7.13451">
        <ele>702.93</ele>
        <time>2019-02-27T13:01:15.000Z</time>
      </trkpt>
      <trkpt lat="47.86953" lon="7.1348">
        <ele>700.16</ele>
        <time>2019-02-27T13:01:33.000Z</time>
      </trkpt>
      <trkpt lat="47.86962" lon="7.13506">
        <ele>703.63</ele>
        <time>2019-02-27T13:01:51.000Z</time>
      </trkpt>
      <trkpt lat="47.86975" lon="7.13533">
        <ele>703.14</ele>
        <time>2019-02-27T13:02:09.000Z</time>
      </trkpt>
      <trkpt lat="47.8699" lon="7.13559">
        <ele>700.17</ele>
        <time>2019-02-27T13:02:27.000Z</time>
      </trkpt>
      <trkpt lat="47.86998" lon="7.13582">
        <ele>699.65</ele>
        <time>2019-02-27T13:02:45.000Z</time>
      </trkpt>
      <trkpt lat="47.87008" lon="7.1361">
        <ele>697.57</ele>
        <time>2019-02-27T13:03:03.000Z</time>
      </trkpt>
      <trkpt lat="47.87029" lon="7.13635">
        <ele>694.04</ele>
        <time>2019-02-27T13:03:21.000Z</time>
      </trkpt>
      <trkpt lat="47.8704" lon="7.1366">
        <ele>696.33</ele>
        <time>2019-02-27T13:03:39.000Z</time>
      </trkpt>
      <trkpt lat="47.8704" lon="7.13685">
        <ele>704.39</ele>
        <time>2019-02-27T13:03:57.000Z</time>
      </trkpt>
      <trkpt lat="47.8704" lon="7.13725">
        <ele>713.67</ele>
        <time>2019-02-27T13:04:15.000Z</time>
      </trkpt>
      <trkpt lat="47.87049" lon="7.13748">
        <ele>777.7</ele>
        <time>2019-02-27T13:04:33.000Z</time>
      </trkpt>
      <trkpt lat="47.87061" lon="7.13756">
        <ele>740.01</ele>
        <time>2019-02-27T13:04:51.000Z</time>
      </trkpt>
      <trkpt lat="47.8707" lon="7.13767">
        <ele>729.44</ele>
        <time>2019-02-27T13:05:09.000Z</time>
      </trkpt>
      <trkpt lat="47.87085" lon="7.13779">
        <ele>728.61</ele>
        <time>2019-02-27T13:05:27.000Z</time>
      </trkpt>
      <trkpt lat="47.87095" lon="7.13791">
        <ele>720.7</ele>
        <time>2019-02-27T13:05:45.000Z</time>
      </trkpt>
      <trkpt lat="47.87093" lon="7.13792">
        <ele>719.27</ele>
        <time>2019-02-27T13:06:03.000Z</time>
      </trkpt>
      <trkpt lat="47.87095" lon="7.13795">
        <ele>718.54</ele>
        <time>2019-02-27T13:06:57.000Z</time>
      </trkpt>
      <trkpt lat="47.87094" lon="7.13808">
        <ele>716.22</ele>
        <time>2019-02-27T13:07:15.000Z</time>
      </trkpt>
      <trkpt lat="47.87102" lon="7.13832">
        <ele>714.38</ele>
        <time>2019-02-27T13:07:33.000Z</time>
      </trkpt>
      <trkpt lat="47.8711" lon="7.13863">
        <ele>722.93</ele>
        <time>2019-02-27T13:07:51.000Z</time>
      </trkpt>
      <trkpt lat="47.87127" lon="7.13881">
        <ele>726.54</ele>
        <time>2019-02-27T13:08:09.000Z</time>
      </trkpt>
      <trkpt lat="47.87145" lon="7.13908">
        <ele>731.35</ele>
        <time>2019-02-27T13:08:27.000Z</time>
      </trkpt>
      <trkpt lat="47.87154" lon="7.13942">
        <ele>738.79</ele>
        <time>2019-02-27T13:08:45.000Z</time>
      </trkpt>
      <trkpt lat="47.87163" lon="7.13973">
        <ele>763.99</ele>
        <time>2019-02-27T13:09:03.000Z</time>
      </trkpt>
      <trkpt lat="47.87165" lon="7.14005">
        <ele>745.2</ele>
        <time>2019-02-27T13:09:21.000Z</time>
      </trkpt>
      <trkpt lat="47.87159" lon="7.14025">
        <ele>740.78</ele>
        <time>2019-02-27T13:09:39.000Z</time>
      </trkpt>
      <trkpt lat="47.87155" lon="7.14028">
        <ele>737.29</ele>
        <time>2019-02-27T13:09:57.000Z</time>
      </trkpt>
      <trkpt lat="47.87155" lon="7.14031">
        <ele>738.68</ele>
        <time>2019-02-27T13:10:15.000Z</time>
      </trkpt>
      <trkpt lat="47.87155" lon="7.14033">
        <ele>737.45</ele>
        <time>2019-02-27T13:12:39.000Z</time>
      </trkpt>
      <trkpt lat="47.8716" lon="7.14047">
        <ele>734.24</ele>
        <time>2019-02-27T13:12:57.000Z</time>
      </trkpt>
      <trkpt lat="47.87163" lon="7.14068">
        <ele>734.98</ele>
        <time>2019-02-27T13:13:15.000Z</time>
      </trkpt>
      <trkpt lat="47.87176" lon="7.14091">
        <ele>727.09</ele>
        <time>2019-02-27T13:13:33.000Z</time>
      </trkpt>
      <trkpt lat="47.87188" lon="7.14118">
        <ele>730.57</ele>
        <time>2019-02-27T13:13:51.000Z</time>
      </trkpt>
      <trkpt lat="47.87206" lon="7.14138">
        <ele>725.85</ele>
        <time>2019-02-27T13:14:09.000Z</time>
      </trkpt>
      <trkpt lat="47.87213" lon="7.14161">
        <ele>729.09</ele>
        <time>2019-02-27T13:14:27.000Z</time>
      </trkpt>
      <trkpt lat="47.87177" lon="7.14174">
        <ele>724.73</ele>
        <time>2019-02-27T13:14:45.000Z</time>
      </trkpt>
      <trkpt lat="47.87158" lon="7.14178">
        <ele>721.31</ele>
        <time>2019-02-27T13:15:03.000Z</time>
      </trkpt>
      <trkpt lat="47.87145" lon="7.14167">
        <ele>716.16</ele>
        <time>2019-02-27T13:15:21.000Z</time>
      </trkpt>
      <trkpt lat="47.87126" lon="7.14175">
        <ele>712.77</ele>
        <time>2019-02-27T13:15:39.000Z</time>
      </trkpt>
      <trkpt lat="47.87123" lon="7.14197">
        <ele>771.94</ele>
        <time>2019-02-27T13:15:57.000Z</time>
      </trkpt>
      <trkpt lat="47.87133" lon="7.14207">
        <ele>713.52</ele>
        <time>2019-02-27T13:16:15.000Z</time>
      </trkpt>
      <trkpt lat="47.87136" lon="7.14234">
        <ele>708.38</ele>
        <time>2019-02-27T13:16:33.000Z</time>
      </trkpt>
      <trkpt lat="47.87139" lon="7.14261">
        <ele>702.59</ele>
        <time>2019-02-27T13:16:51.000Z</time>
      </trkpt>
      <trkpt lat="47.87152" lon="7.14289">
        <ele>741.46</ele>
        <time>2019-02-27T13:17:09.000Z</time>
      </trkpt>
      <trkpt lat="47.87158" lon="7.1431">
        <ele>713.01</ele>
        <time>2019-02-27T13:17:27.000Z</time>
      </trkpt>
      <trkpt lat="47.87161" lon="7.14328">
        <ele>754.92</ele>
        <time>2019-02-27T13:17:45.000Z</time>
      </trkpt>
      <trkpt lat="47.87156" lon="7.14371">
        <ele>732.39</ele>
        <time>2019-02-27T13:18:03.000Z</time>
      </trkpt>
      <trkpt lat="47.87143" lon="7.14402">
        <ele>759.48</ele>
        <time>2019-02-27T13:18:21.000Z</time>
      </trkpt>
      <trkpt lat="47.87131" lon="7.14428">
        <ele>707.05</ele>
        <time>2019-02-27T13:18:39.000Z</time>
      </trkpt>
      <trkpt lat="47.87127" lon="7.14453">
        <ele>692.36</ele>
        <time>2019-02-27T13:18:57.000Z</time>
      </trkpt>
      <trkpt lat="47.87106" lon="7.14481">
        <ele>694.67</ele>
        <time>2019-02-27T13:19:15.000Z</time>
      </trkpt>
      <trkpt lat="47.87102" lon="7.14498">
        <ele>687.89</ele>
        <time>2019-02-27T13:19:33.000Z</time>
      </trkpt>
      <trkpt lat="47.87105" lon="7.1451">
        <ele>684.94</ele>
        <time>2019-02-27T13:19:51.000Z</time>
      </trkpt>
      <trkpt lat="47.87105" lon="7.14534">
        <ele>679.55</ele>
        <time>2019-02-27T13:20:09.000Z</time>
      </trkpt>
      <trkpt lat="47.87109" lon="7.14563">
        <ele>683.87</ele>
        <time>2019-02-27T13:20:27.000Z</time>
      </trkpt>
      <trkpt lat="47.87111" lon="7.14587">
        <ele>673.55</ele>
        <time>2019-02-27T13:20:45.000Z</time>
      </trkpt>
      <trkpt lat="47.87116" lon="7.14612">
        <ele>672.71</ele>
        <time>2019-02-27T13:21:03.000Z</time>
      </trkpt>
      <trkpt lat="47.8712" lon="7.14637">
        <ele>674.91</ele>
        <time>2019-02-27T13:21:21.000Z</time>
      </trkpt>
      <trkpt lat="47.8712" lon="7.14662">
        <ele>674.57</ele>
        <time>2019-02-27T13:21:39.000Z</time>
      </trkpt>
      <trkpt lat="47.87125" lon="7.1469">
        <ele>674.57</ele>
        <time>2019-02-27T13:21:57.000Z</time>
      </trkpt>
      <trkpt lat="47.87132" lon="7.14711">
        <ele>663.36</ele>
        <time>2019-02-27T13:22:15.000Z</time>
      </trkpt>
      <trkpt lat="47.87132" lon="7.14709">
        <ele>662.3</ele>
        <time>2019-02-27T13:22:33.000Z</time>
      </trkpt>
      <trkpt lat="47.87128" lon="7.14706">
        <ele>661.69</ele>
        <time>2019-02-27T13:22:51.000Z</time>
      </trkpt>
      <trkpt lat="47.87126" lon="7.14704">
        <ele>661.77</ele>
        <time>2019-02-27T13:23:09.000Z</time>
      </trkpt>
      <trkpt lat="47.87125" lon="7.14708">
        <ele>660.32</ele>
        <time>2019-02-27T13:24:21.000Z</time>
      </trkpt>
      <trkpt lat="47.87129" lon="7.1473">
        <ele>664.31</ele>
        <time>2019-02-27T13:24:39.000Z</time>
      </trkpt>
      <trkpt lat="47.87133" lon="7.14756">
        <ele>664.2</ele>
        <time>2019-02-27T13:24:57.000Z</time>
      </trkpt>
      <trkpt lat="47.87134" lon="7.14781">
        <ele>665.33</ele>
        <time>2019-02-27T13:25:15.000Z</time>
      </trkpt>
      <trkpt lat="47.87138" lon="7.14809">
        <ele>661.64</ele>
        <time>2019-02-27T13:25:33.000Z</time>
      </trkpt>
      <trkpt lat="47.87137" lon="7.14836">
        <ele>662.43</ele>
        <time>2019-02-27T13:25:51.000Z</time>
      </trkpt>
      <trkpt lat="47.87141" lon="7.14869">
        <ele>659.28</ele>
        <time>2019-02-27T13:26:09.000Z</time>
      </trkpt>
      <trkpt lat="47.87139" lon="7.14887">
        <ele>659.38</ele>
        <time>2019-02-27T13:26:27.000Z</time>
      </trkpt>
      <trkpt lat="47.87138" lon="7.14907">
        <ele>659.51</ele>
        <time>2019-02-27T13:26:45.000Z</time>
      </trkpt>
      <trkpt lat="47.8714" lon="7.14924">
        <ele>656.62</ele>
        <time>2019-02-27T13:27:03.000Z</time>
      </trkpt>
      <trkpt lat="47.87139" lon="7.14948">
        <ele>655.33</ele>
        <time>2019-02-27T13:27:21.000Z</time>
      </trkpt>
      <trkpt lat="47.87134" lon="7.1497">
        <ele>651.63</ele>
        <time>2019-02-27T13:27:39.000Z</time>
      </trkpt>
      <trkpt lat="47.87132" lon="7.14977">
        <ele>648.21</ele>
        <time>2019-02-27T13:27:57.000Z</time>
      </trkpt>
      <trkpt lat="47.87134" lon="7.14978">
        <ele>645.86</ele>
        <time>2019-02-27T13:28:15.000Z</time>
      </trkpt>
      <trkpt lat="47.87134" lon="7.1498">
        <ele>646.43</ele>
        <time>2019-02-27T13:28:33.000Z</time>
      </trkpt>
      <trkpt lat="47.87131" lon="7.14981">
        <ele>647.17</ele>
        <time>2019-02-27T13:28:51.000Z</time>
      </trkpt>
      <trkpt lat="47.87126" lon="7.14976">
        <ele>651.71</ele>
        <time>2019-02-27T13:29:27.000Z</time>
      </trkpt>
      <trkpt lat="47.87129" lon="7.14974">
        <ele>647.67</ele>
        <time>2019-02-27T13:29:45.000Z</time>
      </trkpt>
      <trkpt lat="47.87134" lon="7.14976">
        <ele>642.6</ele>
        <time>2019-02-27T13:30:03.000Z</time>
      </trkpt>
      <trkpt lat="47.87133" lon="7.14975">
        <ele>644.67</ele>
        <time>2019-02-27T13:30:21.000Z</time>
      </trkpt>
      <trkpt lat="47.87127" lon="7.14976">
        <ele>649.73</ele>
        <time>2019-02-27T13:30:39.000Z</time>
      </trkpt>
      <trkpt lat="47.87124" lon="7.14992">
        <ele>650.77</ele>
        <time>2019-02-27T13:30:57.000Z</time>
      </trkpt>
      <trkpt lat="47.87129" lon="7.15012">
        <ele>650.15</ele>
        <time>2019-02-27T13:31:15.000Z</time>
      </trkpt>
      <trkpt lat="47.87129" lon="7.15006">
        <ele>665.94</ele>
        <time>2019-02-27T13:31:32.000Z</time>
      </trkpt>
      <trkpt lat="47.87119" lon="7.15011">
        <ele>649.08</ele>
        <time>2019-02-27T13:31:50.000Z</time>
      </trkpt>
      <trkpt lat="47.87113" lon="7.15033">
        <ele>640.61</ele>
        <time>2019-02-27T13:32:08.000Z</time>
      </trkpt>
      <trkpt lat="47.87112" lon="7.15037">
        <ele>640.32</ele>
        <time>2019-02-27T13:32:26.000Z</time>
      </trkpt>
      <trkpt lat="47.87113" lon="7.15036">
        <ele>643.05</ele>
        <time>2019-02-27T13:32:44.000Z</time>
      </trkpt>
      <trkpt lat="47.87115" lon="7.15046">
        <ele>637.54</ele>
        <time>2019-02-27T13:33:02.000Z</time>
      </trkpt>
      <trkpt lat="47.87114" lon="7.15065">
        <ele>631.1</ele>
        <time>2019-02-27T13:33:20.000Z</time>
      </trkpt>
      <trkpt lat="47.87108" lon="7.15083">
        <ele>630.35</ele>
        <time>2019-02-27T13:33:38.000Z</time>
      </trkpt>
      <trkpt lat="47.87105" lon="7.15096">
        <ele>630.89</ele>
        <time>2019-02-27T13:33:56.000Z</time>
      </trkpt>
      <trkpt lat="47.87106" lon="7.15115">
        <ele>629.04</ele>
        <time>2019-02-27T13:34:14.000Z</time>
      </trkpt>
      <trkpt lat="47.87104" lon="7.15133">
        <ele>626.41</ele>
        <time>2019-02-27T13:34:32.000Z</time>
      </trkpt>
      <trkpt lat="47.87111" lon="7.1515">
        <ele>635.35</ele>
        <time>2019-02-27T13:34:50.000Z</time>
      </trkpt>
      <trkpt lat="47.87117" lon="7.15172">
        <ele>621.27</ele>
        <time>2019-02-27T13:35:08.000Z</time>
      </trkpt>
      <trkpt lat="47.87122" lon="7.1518">
        <ele>620.8</ele>
        <time>2019-02-27T13:35:26.000Z</time>
      </trkpt>
      <trkpt lat="47.87108" lon="7.15183">
        <ele>621.36</ele>
        <time>2019-02-27T13:35:44.000Z</time>
      </trkpt>
      <trkpt lat="47.87107" lon="7.15196">
        <ele>617.54</ele>
        <time>2019-02-27T13:36:02.000Z</time>
      </trkpt>
      <trkpt lat="47.87118" lon="7.15215">
        <ele>617.13</ele>
        <time>2019-02-27T13:36:20.000Z</time>
      </trkpt>
      <trkpt lat="47.87114" lon="7.15236">
        <ele>615.91</ele>
        <time>2019-02-27T13:36:38.000Z</time>
      </trkpt>
      <trkpt lat="47.87115" lon="7.15254">
        <ele>614.55</ele>
        <time>2019-02-27T13:36:56.000Z</time>
      </trkpt>
      <trkpt lat="47.87122" lon="7.15268">
        <ele>623.47</ele>
        <time>2019-02-27T13:37:14.000Z</time>
      </trkpt>
      <trkpt lat="47.87136" lon="7.15262">
        <ele>621.68</ele>
        <time>2019-02-27T13:37:32.000Z</time>
      </trkpt>
      <trkpt lat="47.87154" lon="7.15252">
        <ele>613.51</ele>
        <time>2019-02-27T13:37:50.000Z</time>
      </trkpt>
      <trkpt lat="47.87164" lon="7.15249">
        <ele>712.44</ele>
        <time>2019-02-27T13:38:08.000Z</time>
      </trkpt>
      <trkpt lat="47.87174" lon="7.15258">
        <ele>619.86</ele>
        <time>2019-02-27T13:38:26.000Z</time>
      </trkpt>
      <trkpt lat="47.87174" lon="7.15271">
        <ele>607.28</ele>
        <time>2019-02-27T13:38:44.000Z</time>
      </trkpt>
      <trkpt lat="47.87178" lon="7.15274">
        <ele>603.14</ele>
        <time>2019-02-27T13:39:02.000Z</time>
      </trkpt>
      <trkpt lat="47.87187" lon="7.15257">
        <ele>611.56</ele>
        <time>2019-02-27T13:39:20.000Z</time>
      </trkpt>
      <trkpt lat="47.87187" lon="7.15254">
        <ele>597.5</ele>
        <time>2019-02-27T13:39:38.000Z</time>
      </trkpt>
      <trkpt lat="47.87194" lon="7.15268">
        <ele>595.59</ele>
        <time>2019-02-27T13:39:56.000Z</time>
      </trkpt>
      <trkpt lat="47.87196" lon="7.15288">
        <ele>595.64</ele>
        <time>2019-02-27T13:40:14.000Z</time>
      </trkpt>
      <trkpt lat="47.87183" lon="7.15301">
        <ele>591.27</ele>
        <time>2019-02-27T13:40:32.000Z</time>
      </trkpt>
      <trkpt lat="47.8718" lon="7.15327">
        <ele>587.32</ele>
        <time>2019-02-27T13:40:50.000Z</time>
      </trkpt>
      <trkpt lat="47.87182" lon="7.15356">
        <ele>666.88</ele>
        <time>2019-02-27T13:41:08.000Z</time>
      </trkpt>
      <trkpt lat="47.87184" lon="7.15379">
        <ele>595.83</ele>
        <time>2019-02-27T13:41:26.000Z</time>
      </trkpt>
      <trkpt lat="47.87184" lon="7.15405">
        <ele>578.56</ele>
        <time>2019-02-27T13:41:44.000Z</time>
      </trkpt>
      <trkpt lat="47.87196" lon="7.15438">
        <ele>574.71</ele>
        <time>2019-02-27T13:42:02.000Z</time>
      </trkpt>
      <trkpt lat="47.87203" lon="7.15465">
        <ele>574.65</ele>
        <time>2019-02-27T13:42:20.000Z</time>
      </trkpt>
      <trkpt lat="47.87202" lon="7.15494">
        <ele>571.62</ele>
        <time>2019-02-27T13:42:38.000Z</time>
      </trkpt>
      <trkpt lat="47.87212" lon="7.15524">
        <ele>567.84</ele>
        <time>2019-02-27T13:42:56.000Z</time>
      </trkpt>
      <trkpt lat="47.87215" lon="7.15547">
        <ele>565.9</ele>
        <time>2019-02-27T13:43:14.000Z</time>
      </trkpt>
      <trkpt lat="47.87215" lon="7.15567">
        <ele>566.97</ele>
        <time>2019-02-27T13:43:32.000Z</time>
      </trkpt>
      <trkpt lat="47.87233" lon="7.15568">
        <ele>565.71</ele>
        <time>2019-02-27T13:43:50.000Z</time>
      </trkpt>
      <trkpt lat="47.87223" lon="7.1559">
        <ele>555.6</ele>
        <time>2019-02-27T13:44:08.000Z</time>
      </trkpt>
      <trkpt lat="47.87222" lon="7.15584">
        <ele>598.84</ele>
        <time>2019-02-27T13:44:26.000Z</time>
      </trkpt>
      <trkpt lat="47.87211" lon="7.1558">
        <ele>552.96</ele>
        <time>2019-02-27T13:44:44.000Z</time>
      </trkpt>
      <trkpt lat="47.87208" lon="7.15561">
        <ele>540.58</ele>
        <time>2019-02-27T13:45:02.000Z</time>
      </trkpt>
      <trkpt lat="47.87195" lon="7.15543">
        <ele>545.52</ele>
        <time>2019-02-27T13:45:20.000Z</time>
      </trkpt>
      <trkpt lat="47.87189" lon="7.15531">
        <ele>574.24</ele>
        <time>2019-02-27T13:45:38.000Z</time>
      </trkpt>
      <trkpt lat="47.87159" lon="7.15529">
        <ele>553.25</ele>
        <time>2019-02-27T13:45:56.000Z</time>
      </trkpt>
      <trkpt lat="47.87144" lon="7.15517">
        <ele>542.91</ele>
        <time>2019-02-27T13:46:14.000Z</time>
      </trkpt>
      <trkpt lat="47.87131" lon="7.15511">
        <ele>539.84</ele>
        <time>2019-02-27T13:46:32.000Z</time>
      </trkpt>
      <trkpt lat="47.87116" lon="7.15521">
        <ele>535.59</ele>
        <time>2019-02-27T13:46:50.000Z</time>
      </trkpt>
      <trkpt lat="47.87094" lon="7.15515">
        <ele>533.72</ele>
        <time>2019-02-27T13:47:08.000Z</time>
      </trkpt>
      <trkpt lat="47.87084" lon="7.15536">
        <ele>527.69</ele>
        <time>2019-02-27T13:47:26.000Z</time>
      </trkpt>
      <trkpt lat="47.87098" lon="7.15553">
        <ele>522.02</ele>
        <time>2019-02-27T13:47:44.000Z</time>
      </trkpt>
      <trkpt lat="47.87105" lon="7.15584">
        <ele>508.93</ele>
        <time>2019-02-27T13:48:02.000Z</time>
      </trkpt>
      <trkpt lat="47.8712" lon="7.15601">
        <ele>501.08</ele>
        <time>2019-02-27T13:48:20.000Z</time>
      </trkpt>
      <trkpt lat="47.87129" lon="7.15632">
        <ele>500.72</ele>
        <time>2019-02-27T13:48:38.000Z</time>
      </trkpt>
      <trkpt lat="47.8714" lon="7.1565">
        <ele>501.1</ele>
        <time>2019-02-27T13:48:56.000Z</time>
      </trkpt>
      <trkpt lat="47.8712" lon="7.15703">
        <ele>506.5</ele>
        <time>2019-02-27T13:49:14.000Z</time>
      </trkpt>
      <trkpt lat="47.87169" lon="7.1569">
        <ele>509.69</ele>
        <time>2019-02-27T13:49:32.000Z</time>
      </trkpt>
      <trkpt lat="47.87167" lon="7.15711">
        <ele>515.32</ele>
        <time>2019-02-27T13:49:50.000Z</time>
      </trkpt>
      <trkpt lat="47.8718" lon="7.15741">
        <ele>517.7</ele>
        <time>2019-02-27T13:50:08.000Z</time>
      </trkpt>
      <trkpt lat="47.87199" lon="7.15759">
        <ele>513.86</ele>
        <time>2019-02-27T13:50:26.000Z</time>
      </trkpt>
      <trkpt lat="47.87213" lon="7.15767">
        <ele>514.05</ele>
        <time>2019-02-27T13:50:44.000Z</time>
      </trkpt>
      <trkpt lat="47.8723" lon="7.15779">
        <ele>514.4</ele>
        <time>2019-02-27T13:51:02.000Z</time>
      </trkpt>
      <trkpt lat="47.87252" lon="7.15784">
        <ele>511.61</ele>
        <time>2019-02-27T13:51:20.000Z</time>
      </trkpt>
      <trkpt lat="47.87264" lon="7.15796">
        <ele>901.47</ele>
        <time>2019-02-27T13:51:43.000Z</time>
      </trkpt>
      <trkpt lat="47.87303" lon="7.15797">
        <ele>887.31</ele>
        <time>2019-02-27T13:52:01.000Z</time>
      </trkpt>
      <trkpt lat="47.87318" lon="7.15812">
        <ele>883.36</ele>
        <time>2019-02-27T13:52:19.000Z</time>
      </trkpt>
      <trkpt lat="47.87332" lon="7.15834">
        <ele>888.04</ele>
        <time>2019-02-27T13:52:37.000Z</time>
      </trkpt>
      <trkpt lat="47.87338" lon="7.1583">
        <ele>887.88</ele>
        <time>2019-02-27T13:52:55.000Z</time>
      </trkpt>
      <trkpt lat="47.87339" lon="7.15836">
        <ele>812.34</ele>
        <time>2019-02-27T13:53:13.000Z</time>
      </trkpt>
      <trkpt lat="47.87339" lon="7.15839">
        <ele>638</ele>
        <time>2019-02-27T13:53:31.000Z</time>
      </trkpt>
      <trkpt lat="47.87341" lon="7.15852">
        <ele>566.14</ele>
        <time>2019-02-27T13:53:49.000Z</time>
      </trkpt>
      <trkpt lat="47.8734" lon="7.15855">
        <ele>545.14</ele>
        <time>2019-02-27T13:54:07.000Z</time>
      </trkpt>
      <trkpt lat="47.87337" lon="7.15854">
        <ele>547.87</ele>
        <time>2019-02-27T13:54:25.000Z</time>
      </trkpt>
      <trkpt lat="47.87333" lon="7.15853">
        <ele>546.03</ele>
        <time>2019-02-27T13:54:43.000Z</time>
      </trkpt>
      <trkpt lat="47.87338" lon="7.15847">
        <ele>736.58</ele>
        <time>2019-02-27T13:55:19.000Z</time>
      </trkpt>
      <trkpt lat="47.87339" lon="7.15837">
        <ele>726.87</ele>
        <time>2019-02-27T13:55:37.000Z</time>
      </trkpt>
      <trkpt lat="47.87337" lon="7.15836">
        <ele>676.67</ele>
        <time>2019-02-27T13:55:55.000Z</time>
      </trkpt>
      <trkpt lat="47.87336" lon="7.15839">
        <ele>791.21</ele>
        <time>2019-02-27T13:56:31.000Z</time>
      </trkpt>
      <trkpt lat="47.87352" lon="7.15837">
        <ele>579.25</ele>
        <time>2019-02-27T13:56:49.000Z</time>
      </trkpt>
      <trkpt lat="47.87351" lon="7.15796">
        <ele>816.54</ele>
        <time>2019-02-27T13:57:08.000Z</time>
      </trkpt>
      <trkpt lat="47.87371" lon="7.15772">
        <ele>841.08</ele>
        <time>2019-02-27T13:57:26.000Z</time>
      </trkpt>
      <trkpt lat="47.87388" lon="7.15763">
        <ele>842.63</ele>
        <time>2019-02-27T13:57:44.000Z</time>
      </trkpt>
      <trkpt lat="47.874" lon="7.15776">
        <ele>867.18</ele>
        <time>2019-02-27T13:58:02.000Z</time>
      </trkpt>
      <trkpt lat="47.87403" lon="7.15797">
        <ele>827.7</ele>
        <time>2019-02-27T13:58:20.000Z</time>
      </trkpt>
      <trkpt lat="47.87399" lon="7.15837">
        <ele>604.28</ele>
        <time>2019-02-27T13:58:38.000Z</time>
      </trkpt>
      <trkpt lat="47.87417" lon="7.15874">
        <ele>524.91</ele>
        <time>2019-02-27T13:58:55.000Z</time>
      </trkpt>
      <trkpt lat="47.87421" lon="7.15896">
        <ele>499.48</ele>
        <time>2019-02-27T13:59:13.000Z</time>
      </trkpt>
      <trkpt lat="47.87425" lon="7.15954">
        <ele>490.83</ele>
        <time>2019-02-27T13:59:34.000Z</time>
      </trkpt>
      <trkpt lat="47.87466" lon="7.15862">
        <ele>489.63</ele>
        <time>2019-02-27T13:59:52.000Z</time>
      </trkpt>
      <trkpt lat="47.87476" lon="7.15901">
        <ele>493.64</ele>
        <time>2019-02-27T14:00:10.000Z</time>
      </trkpt>
      <trkpt lat="47.87495" lon="7.15913">
        <ele>501.26</ele>
        <time>2019-02-27T14:00:28.000Z</time>
      </trkpt>
      <trkpt lat="47.87489" lon="7.15944">
        <ele>506.64</ele>
        <time>2019-02-27T14:00:46.000Z</time>
      </trkpt>
      <trkpt lat="47.87488" lon="7.15981">
        <ele>511.04</ele>
        <time>2019-02-27T14:01:04.000Z</time>
      </trkpt>
      <trkpt lat="47.87488" lon="7.16009">
        <ele>517.07</ele>
        <time>2019-02-27T14:01:22.000Z</time>
      </trkpt>
      <trkpt lat="47.87493" lon="7.16039">
        <ele>515.58</ele>
        <time>2019-02-27T14:01:40.000Z</time>
      </trkpt>
      <trkpt lat="47.875" lon="7.16064">
        <ele>514.8</ele>
        <time>2019-02-27T14:01:58.000Z</time>
      </trkpt>
      <trkpt lat="47.87491" lon="7.16095">
        <ele>518.65</ele>
        <time>2019-02-27T14:02:16.000Z</time>
      </trkpt>
      <trkpt lat="47.87496" lon="7.16128">
        <ele>517.02</ele>
        <time>2019-02-27T14:02:34.000Z</time>
      </trkpt>
      <trkpt lat="47.87496" lon="7.16161">
        <ele>518.69</ele>
        <time>2019-02-27T14:02:52.000Z</time>
      </trkpt>
      <trkpt lat="47.87481" lon="7.16187">
        <ele>518.83</ele>
        <time>2019-02-27T14:03:10.000Z</time>
      </trkpt>
      <trkpt lat="47.87462" lon="7.16188">
        <ele>518.28</ele>
        <time>2019-02-27T14:03:28.000Z</time>
      </trkpt>
      <trkpt lat="47.87456" lon="7.16229">
        <ele>521.65</ele>
        <time>2019-02-27T14:03:46.000Z</time>
      </trkpt>
      <trkpt lat="47.87465" lon="7.16261">
        <ele>517.97</ele>
        <time>2019-02-27T14:04:04.000Z</time>
      </trkpt>
      <trkpt lat="47.87488" lon="7.16344">
        <ele>514.62</ele>
        <time>2019-02-27T14:04:22.000Z</time>
      </trkpt>
      <trkpt lat="47.87506" lon="7.16294">
        <ele>506.25</ele>
        <time>2019-02-27T14:04:40.000Z</time>
      </trkpt>
      <trkpt lat="47.87507" lon="7.16292">
        <ele>505.18</ele>
        <time>2019-02-27T14:04:58.000Z</time>
      </trkpt>
      <trkpt lat="47.87521" lon="7.16305">
        <ele>505.85</ele>
        <time>2019-02-27T14:05:16.000Z</time>
      </trkpt>
      <trkpt lat="47.87534" lon="7.16318">
        <ele>509.18</ele>
        <time>2019-02-27T14:05:34.000Z</time>
      </trkpt>
      <trkpt lat="47.87551" lon="7.16333">
        <ele>512.69</ele>
        <time>2019-02-27T14:05:52.000Z</time>
      </trkpt>
      <trkpt lat="47.87564" lon="7.16336">
        <ele>516.31</ele>
        <time>2019-02-27T14:06:10.000Z</time>
      </trkpt>
      <trkpt lat="47.8759" lon="7.16351">
        <ele>516.7</ele>
        <time>2019-02-27T14:06:28.000Z</time>
      </trkpt>
      <trkpt lat="47.87597" lon="7.16324">
        <ele>519.76</ele>
        <time>2019-02-27T14:06:46.000Z</time>
      </trkpt>
      <trkpt lat="47.87613" lon="7.16319">
        <ele>827.27</ele>
        <time>2019-02-27T14:07:05.000Z</time>
      </trkpt>
      <trkpt lat="47.87618" lon="7.16312">
        <ele>703.4</ele>
        <time>2019-02-27T14:07:23.000Z</time>
      </trkpt>
      <trkpt lat="47.87628" lon="7.16323">
        <ele>777.35</ele>
        <time>2019-02-27T14:07:41.000Z</time>
      </trkpt>
      <trkpt lat="47.87637" lon="7.16346">
        <ele>807.61</ele>
        <time>2019-02-27T14:07:59.000Z</time>
      </trkpt>
      <trkpt lat="47.8762" lon="7.16387">
        <ele>776.09</ele>
        <time>2019-02-27T14:08:16.000Z</time>
      </trkpt>
      <trkpt lat="47.87621" lon="7.16405">
        <ele>788.27</ele>
        <time>2019-02-27T14:08:34.000Z</time>
      </trkpt>
      <trkpt lat="47.87621" lon="7.16422">
        <ele>582.43</ele>
        <time>2019-02-27T14:08:52.000Z</time>
      </trkpt>
      <trkpt lat="47.87625" lon="7.16445">
        <ele>566.17</ele>
        <time>2019-02-27T14:09:10.000Z</time>
      </trkpt>
      <trkpt lat="47.87614" lon="7.16474">
        <ele>564.79</ele>
        <time>2019-02-27T14:09:28.000Z</time>
      </trkpt>
      <trkpt lat="47.87599" lon="7.16488">
        <ele>566.5</ele>
        <time>2019-02-27T14:09:46.000Z</time>
      </trkpt>
      <trkpt lat="47.87585" lon="7.16485">
        <ele>570.51</ele>
        <time>2019-02-27T14:10:11.000Z</time>
      </trkpt>
      <trkpt lat="47.87583" lon="7.16533">
        <ele>570.73</ele>
        <time>2019-02-27T14:10:29.000Z</time>
      </trkpt>
      <trkpt lat="47.87588" lon="7.16564">
        <ele>564.82</ele>
        <time>2019-02-27T14:10:47.000Z</time>
      </trkpt>
      <trkpt lat="47.87584" lon="7.16567">
        <ele>550.26</ele>
        <time>2019-02-27T14:11:00.000Z</time>
      </trkpt>
      <trkpt lat="47.8758" lon="7.16573">
        <ele>562.45</ele>
        <time>2019-02-27T14:11:18.000Z</time>
      </trkpt>
      <trkpt lat="47.87578" lon="7.16576">
        <ele>563.25</ele>
        <time>2019-02-27T14:11:36.000Z</time>
      </trkpt>
      <trkpt lat="47.87584" lon="7.16573">
        <ele>566.62</ele>
        <time>2019-02-27T14:12:12.000Z</time>
      </trkpt>
      <trkpt lat="47.87584" lon="7.16574">
        <ele>680.99</ele>
        <time>2019-02-27T14:12:30.000Z</time>
      </trkpt>
      <trkpt lat="47.87588" lon="7.16573">
        <ele>617.3</ele>
        <time>2019-02-27T14:12:48.000Z</time>
      </trkpt>
      <trkpt lat="47.87585" lon="7.16608">
        <ele>552.88</ele>
        <time>2019-02-27T14:13:06.000Z</time>
      </trkpt>
      <trkpt lat="47.87589" lon="7.16631">
        <ele>703.78</ele>
        <time>2019-02-27T14:13:23.000Z</time>
      </trkpt>
      <trkpt lat="47.87605" lon="7.16644">
        <ele>605.86</ele>
        <time>2019-02-27T14:13:41.000Z</time>
      </trkpt>
      <trkpt lat="47.87622" lon="7.16654">
        <ele>558.02</ele>
        <time>2019-02-27T14:13:59.000Z</time>
      </trkpt>
      <trkpt lat="47.87633" lon="7.1669">
        <ele>557.21</ele>
        <time>2019-02-27T14:14:17.000Z</time>
      </trkpt>
      <trkpt lat="47.87637" lon="7.16721">
        <ele>558.22</ele>
        <time>2019-02-27T14:14:35.000Z</time>
      </trkpt>
      <trkpt lat="47.87647" lon="7.16737">
        <ele>565.07</ele>
        <time>2019-02-27T14:14:53.000Z</time>
      </trkpt>
      <trkpt lat="47.8765" lon="7.16763">
        <ele>588.78</ele>
        <time>2019-02-27T14:16:23.000Z</time>
      </trkpt>
      <trkpt lat="47.87648" lon="7.16795">
        <ele>566.21</ele>
        <time>2019-02-27T14:16:41.000Z</time>
      </trkpt>
      <trkpt lat="47.87654" lon="7.16824">
        <ele>556.44</ele>
        <time>2019-02-27T14:16:59.000Z</time>
      </trkpt>
      <trkpt lat="47.87667" lon="7.16846">
        <ele>569.6</ele>
        <time>2019-02-27T14:17:17.000Z</time>
      </trkpt>
      <trkpt lat="47.87672" lon="7.16883">
        <ele>539.99</ele>
        <time>2019-02-27T14:17:35.000Z</time>
      </trkpt>
      <trkpt lat="47.87686" lon="7.16903">
        <ele>534.83</ele>
        <time>2019-02-27T14:17:53.000Z</time>
      </trkpt>
      <trkpt lat="47.87695" lon="7.1693">
        <ele>539.43</ele>
        <time>2019-02-27T14:18:11.000Z</time>
      </trkpt>
      <trkpt lat="47.87713" lon="7.16956">
        <ele>587.79</ele>
        <time>2019-02-27T14:18:29.000Z</time>
      </trkpt>
      <trkpt lat="47.8773" lon="7.16976">
        <ele>554.14</ele>
        <time>2019-02-27T14:18:47.000Z</time>
      </trkpt>
      <trkpt lat="47.87726" lon="7.16981">
        <ele>606.55</ele>
        <time>2019-02-27T14:19:05.000Z</time>
      </trkpt>
      <trkpt lat="47.87777" lon="7.17003">
        <ele>569.32</ele>
        <time>2019-02-27T14:19:23.000Z</time>
      </trkpt>
      <trkpt lat="47.8779" lon="7.17032">
        <ele>574.38</ele>
        <time>2019-02-27T14:19:41.000Z</time>
      </trkpt>
      <trkpt lat="47.87793" lon="7.17059">
        <ele>576.89</ele>
        <time>2019-02-27T14:19:59.000Z</time>
      </trkpt>
      <trkpt lat="47.87809" lon="7.17069">
        <ele>590.11</ele>
        <time>2019-02-27T14:20:17.000Z</time>
      </trkpt>
      <trkpt lat="47.87823" lon="7.17097">
        <ele>563.45</ele>
        <time>2019-02-27T14:20:35.000Z</time>
      </trkpt>
      <trkpt lat="47.87831" lon="7.17118">
        <ele>559.41</ele>
        <time>2019-02-27T14:20:53.000Z</time>
      </trkpt>
      <trkpt lat="47.87833" lon="7.17148">
        <ele>532.61</ele>
        <time>2019-02-27T14:21:11.000Z</time>
      </trkpt>
      <trkpt lat="47.87827" lon="7.17162">
        <ele>537.32</ele>
        <time>2019-02-27T14:21:29.000Z</time>
      </trkpt>
      <trkpt lat="47.87826" lon="7.17161">
        <ele>545</ele>
        <time>2019-02-27T14:21:47.000Z</time>
      </trkpt>
      <trkpt lat="47.87833" lon="7.1721">
        <ele>553.89</ele>
        <time>2019-02-27T14:22:05.000Z</time>
      </trkpt>
      <trkpt lat="47.87833" lon="7.17237">
        <ele>535.13</ele>
        <time>2019-02-27T14:22:23.000Z</time>
      </trkpt>
      <trkpt lat="47.87825" lon="7.17257">
        <ele>546.68</ele>
        <time>2019-02-27T14:22:41.000Z</time>
      </trkpt>
      <trkpt lat="47.87827" lon="7.17288">
        <ele>550.88</ele>
        <time>2019-02-27T14:22:59.000Z</time>
      </trkpt>
      <trkpt lat="47.8782" lon="7.17308">
        <ele>548.32</ele>
        <time>2019-02-27T14:23:17.000Z</time>
      </trkpt>
      <trkpt lat="47.8782" lon="7.17321">
        <ele>574.3</ele>
        <time>2019-02-27T14:23:35.000Z</time>
      </trkpt>
      <trkpt lat="47.87827" lon="7.17337">
        <ele>553.11</ele>
        <time>2019-02-27T14:23:53.000Z</time>
      </trkpt>
      <trkpt lat="47.87833" lon="7.17362">
        <ele>609.47</ele>
        <time>2019-02-27T14:24:11.000Z</time>
      </trkpt>
      <trkpt lat="47.87816" lon="7.17387">
        <ele>600.19</ele>
        <time>2019-02-27T14:24:29.000Z</time>
      </trkpt>
      <trkpt lat="47.87811" lon="7.17391">
        <ele>543.2</ele>
        <time>2019-02-27T14:24:47.000Z</time>
      </trkpt>
      <trkpt lat="47.87823" lon="7.17403">
        <ele>537.15</ele>
        <time>2019-02-27T14:25:05.000Z</time>
      </trkpt>
      <trkpt lat="47.87835" lon="7.17388">
        <ele>529.94</ele>
        <time>2019-02-27T14:25:23.000Z</time>
      </trkpt>
      <trkpt lat="47.87838" lon="7.17378">
        <ele>536.13</ele>
        <time>2019-02-27T14:25:41.000Z</time>
      </trkpt>
      <trkpt lat="47.87845" lon="7.1738">
        <ele>529.34</ele>
        <time>2019-02-27T14:25:59.000Z</time>
      </trkpt>
      <trkpt lat="47.87859" lon="7.17353">
        <ele>589.81</ele>
        <time>2019-02-27T14:26:17.000Z</time>
      </trkpt>
      <trkpt lat="47.87873" lon="7.17341">
        <ele>537.75</ele>
        <time>2019-02-27T14:26:35.000Z</time>
      </trkpt>
      <trkpt lat="47.8788" lon="7.17357">
        <ele>539.93</ele>
        <time>2019-02-27T14:26:53.000Z</time>
      </trkpt>
      <trkpt lat="47.87892" lon="7.17369">
        <ele>535.77</ele>
        <time>2019-02-27T14:27:11.000Z</time>
      </trkpt>
      <trkpt lat="47.87901" lon="7.17402">
        <ele>708.69</ele>
        <time>2019-02-27T14:27:29.000Z</time>
      </trkpt>
      <trkpt lat="47.87918" lon="7.17419">
        <ele>661.76</ele>
        <time>2019-02-27T14:27:47.000Z</time>
      </trkpt>
      <trkpt lat="47.87935" lon="7.17425">
        <ele>710.79</ele>
        <time>2019-02-27T14:28:05.000Z</time>
      </trkpt>
      <trkpt lat="47.87952" lon="7.17443">
        <ele>551.29</ele>
        <time>2019-02-27T14:28:23.000Z</time>
      </trkpt>
      <trkpt lat="47.87969" lon="7.17463">
        <ele>581.06</ele>
        <time>2019-02-27T14:28:41.000Z</time>
      </trkpt>
      <trkpt lat="47.87991" lon="7.17481">
        <ele>536.2</ele>
        <time>2019-02-27T14:28:59.000Z</time>
      </trkpt>
      <trkpt lat="47.88029" lon="7.17493">
        <ele>532.01</ele>
        <time>2019-02-27T14:29:18.000Z</time>
      </trkpt>
      <trkpt lat="47.88008" lon="7.17513">
        <ele>774.99</ele>
        <time>2019-02-27T14:29:36.000Z</time>
      </trkpt>
      <trkpt lat="47.88044" lon="7.17542">
        <ele>611.11</ele>
        <time>2019-02-27T14:29:53.000Z</time>
      </trkpt>
      <trkpt lat="47.88056" lon="7.17575">
        <ele>535.11</ele>
        <time>2019-02-27T14:30:11.000Z</time>
      </trkpt>
      <trkpt lat="47.88076" lon="7.17579">
        <ele>524.13</ele>
        <time>2019-02-27T14:30:29.000Z</time>
      </trkpt>
      <trkpt lat="47.88097" lon="7.17569">
        <ele>519.92</ele>
        <time>2019-02-27T14:30:47.000Z</time>
      </trkpt>
      <trkpt lat="47.8813" lon="7.17587">
        <ele>516.29</ele>
        <time>2019-02-27T14:31:05.000Z</time>
      </trkpt>
      <trkpt lat="47.88137" lon="7.1758">
        <ele>511.69</ele>
        <time>2019-02-27T14:31:23.000Z</time>
      </trkpt>
      <trkpt lat="47.88139" lon="7.17551">
        <ele>513.41</ele>
        <time>2019-02-27T14:31:41.000Z</time>
      </trkpt>
      <trkpt lat="47.88129" lon="7.17526">
        <ele>511.17</ele>
        <time>2019-02-27T14:31:59.000Z</time>
      </trkpt>
      <trkpt lat="47.88129" lon="7.17464">
        <ele>507.58</ele>
        <time>2019-02-27T14:32:22.000Z</time>
      </trkpt>
      <trkpt lat="47.88126" lon="7.17485">
        <ele>507.85</ele>
        <time>2019-02-27T14:32:40.000Z</time>
      </trkpt>
      <trkpt lat="47.88145" lon="7.1751">
        <ele>508.97</ele>
        <time>2019-02-27T14:32:58.000Z</time>
      </trkpt>
      <trkpt lat="47.88171" lon="7.17522">
        <ele>510</ele>
        <time>2019-02-27T14:33:16.000Z</time>
      </trkpt>
      <trkpt lat="47.88164" lon="7.17528">
        <ele>508.6</ele>
        <time>2019-02-27T14:33:34.000Z</time>
      </trkpt>
      <trkpt lat="47.88161" lon="7.17556">
        <ele>509.48</ele>
        <time>2019-02-27T14:33:52.000Z</time>
      </trkpt>
      <trkpt lat="47.88179" lon="7.17581">
        <ele>513.7</ele>
        <time>2019-02-27T14:34:10.000Z</time>
      </trkpt>
      <trkpt lat="47.88194" lon="7.17609">
        <ele>519.3</ele>
        <time>2019-02-27T14:34:28.000Z</time>
      </trkpt>
      <trkpt lat="47.88227" lon="7.17627">
        <ele>510.37</ele>
        <time>2019-02-27T14:34:46.000Z</time>
      </trkpt>
      <trkpt lat="47.88232" lon="7.1766">
        <ele>511.19</ele>
        <time>2019-02-27T14:35:04.000Z</time>
      </trkpt>
      <trkpt lat="47.88241" lon="7.17691">
        <ele>500.64</ele>
        <time>2019-02-27T14:35:22.000Z</time>
      </trkpt>
      <trkpt lat="47.88267" lon="7.17702">
        <ele>493.32</ele>
        <time>2019-02-27T14:35:40.000Z</time>
      </trkpt>
      <trkpt lat="47.88282" lon="7.17672">
        <ele>490.5</ele>
        <time>2019-02-27T14:35:58.000Z</time>
      </trkpt>
      <trkpt lat="47.88281" lon="7.177">
        <ele>493.68</ele>
        <time>2019-02-27T14:36:16.000Z</time>
      </trkpt>
      <trkpt lat="47.88296" lon="7.17735">
        <ele>496.86</ele>
        <time>2019-02-27T14:36:34.000Z</time>
      </trkpt>
      <trkpt lat="47.88297" lon="7.17762">
        <ele>491.94</ele>
        <time>2019-02-27T14:36:52.000Z</time>
      </trkpt>
      <trkpt lat="47.88314" lon="7.17788">
        <ele>495.27</ele>
        <time>2019-02-27T14:37:10.000Z</time>
      </trkpt>
      <trkpt lat="47.88335" lon="7.17807">
        <ele>491.54</ele>
        <time>2019-02-27T14:37:28.000Z</time>
      </trkpt>
      <trkpt lat="47.88342" lon="7.17835">
        <ele>491.62</ele>
        <time>2019-02-27T14:37:46.000Z</time>
      </trkpt>
      <trkpt lat="47.8836" lon="7.17852">
        <ele>484.64</ele>
        <time>2019-02-27T14:38:04.000Z</time>
      </trkpt>
      <trkpt lat="47.88351" lon="7.17878">
        <ele>488.84</ele>
        <time>2019-02-27T14:38:22.000Z</time>
      </trkpt>
      <trkpt lat="47.88369" lon="7.17911">
        <ele>490.99</ele>
        <time>2019-02-27T14:38:40.000Z</time>
      </trkpt>
      <trkpt lat="47.88396" lon="7.17919">
        <ele>486.06</ele>
        <time>2019-02-27T14:38:58.000Z</time>
      </trkpt>
      <trkpt lat="47.88419" lon="7.17932">
        <ele>487.53</ele>
        <time>2019-02-27T14:39:16.000Z</time>
      </trkpt>
      <trkpt lat="47.88438" lon="7.17954">
        <ele>477.92</ele>
        <time>2019-02-27T14:39:34.000Z</time>
      </trkpt>
      <trkpt lat="47.88463" lon="7.17975">
        <ele>469.53</ele>
        <time>2019-02-27T14:39:52.000Z</time>
      </trkpt>
      <trkpt lat="47.88486" lon="7.17981">
        <ele>473.06</ele>
        <time>2019-02-27T14:40:10.000Z</time>
      </trkpt>
      <trkpt lat="47.88504" lon="7.17969">
        <ele>473.79</ele>
        <time>2019-02-27T14:40:28.000Z</time>
      </trkpt>
      <trkpt lat="47.88495" lon="7.17971">
        <ele>472.84</ele>
        <time>2019-02-27T14:40:46.000Z</time>
      </trkpt>
      <trkpt lat="47.8854" lon="7.1799">
        <ele>475.81</ele>
        <time>2019-02-27T14:41:04.000Z</time>
      </trkpt>
      <trkpt lat="47.88525" lon="7.1803">
        <ele>475.93</ele>
        <time>2019-02-27T14:41:22.000Z</time>
      </trkpt>
      <trkpt lat="47.88533" lon="7.18042">
        <ele>474.54</ele>
        <time>2019-02-27T14:41:40.000Z</time>
      </trkpt>
      <trkpt lat="47.88544" lon="7.18085">
        <ele>467.46</ele>
        <time>2019-02-27T14:41:58.000Z</time>
      </trkpt>
      <trkpt lat="47.8857" lon="7.1811">
        <ele>458.72</ele>
        <time>2019-02-27T14:42:16.000Z</time>
      </trkpt>
      <trkpt lat="47.88582" lon="7.18129">
        <ele>459.01</ele>
        <time>2019-02-27T14:42:34.000Z</time>
      </trkpt>
      <trkpt lat="47.88592" lon="7.18156">
        <ele>453.72</ele>
        <time>2019-02-27T14:42:52.000Z</time>
      </trkpt>
      <trkpt lat="47.88598" lon="7.18158">
        <ele>452.69</ele>
        <time>2019-02-27T14:43:10.000Z</time>
      </trkpt>
      <trkpt lat="47.886" lon="7.18161">
        <ele>455.77</ele>
        <time>2019-02-27T14:43:27.000Z</time>
      </trkpt>
      <trkpt lat="47.88604" lon="7.18181">
        <ele>457.7</ele>
        <time>2019-02-27T14:43:45.000Z</time>
      </trkpt>
      <trkpt lat="47.88606" lon="7.18184">
        <ele>459.23</ele>
        <time>2019-02-27T14:44:03.000Z</time>
      </trkpt>
      <trkpt lat="47.8861" lon="7.18198">
        <ele>458.06</ele>
        <time>2019-02-27T14:44:21.000Z</time>
      </trkpt>
      <trkpt lat="47.88615" lon="7.18228">
        <ele>455.51</ele>
        <time>2019-02-27T14:44:39.000Z</time>
      </trkpt>
      <trkpt lat="47.88623" lon="7.18259">
        <ele>449.98</ele>
        <time>2019-02-27T14:44:57.000Z</time>
      </trkpt>
      <trkpt lat="47.88628" lon="7.18283">
        <ele>443.97</ele>
        <time>2019-02-27T14:45:15.000Z</time>
      </trkpt>
      <trkpt lat="47.88651" lon="7.18298">
        <ele>442.41</ele>
        <time>2019-02-27T14:45:33.000Z</time>
      </trkpt>
      <trkpt lat="47.88671" lon="7.18278">
        <ele>442.12</ele>
        <time>2019-02-27T14:45:51.000Z</time>
      </trkpt>
      <trkpt lat="47.88687" lon="7.1828">
        <ele>445.1</ele>
        <time>2019-02-27T14:46:09.000Z</time>
      </trkpt>
      <trkpt lat="47.88709" lon="7.18286">
        <ele>447.09</ele>
        <time>2019-02-27T14:46:27.000Z</time>
      </trkpt>
      <trkpt lat="47.88736" lon="7.18285">
        <ele>448.36</ele>
        <time>2019-02-27T14:46:45.000Z</time>
      </trkpt>
      <trkpt lat="47.88759" lon="7.18293">
        <ele>441.99</ele>
        <time>2019-02-27T14:47:03.000Z</time>
      </trkpt>
      <trkpt lat="47.88774" lon="7.1828">
        <ele>447.43</ele>
        <time>2019-02-27T14:47:21.000Z</time>
      </trkpt>
      <trkpt lat="47.8879" lon="7.18291">
        <ele>446.06</ele>
        <time>2019-02-27T14:47:39.000Z</time>
      </trkpt>
      <trkpt lat="47.88814" lon="7.1827">
        <ele>645.07</ele>
        <time>2019-02-27T14:47:57.000Z</time>
      </trkpt>
      <trkpt lat="47.88832" lon="7.18243">
        <ele>455.55</ele>
        <time>2019-02-27T14:48:15.000Z</time>
      </trkpt>
      <trkpt lat="47.88847" lon="7.18221">
        <ele>459.47</ele>
        <time>2019-02-27T14:48:33.000Z</time>
      </trkpt>
      <trkpt lat="47.88845" lon="7.18192">
        <ele>459.92</ele>
        <time>2019-02-27T14:48:51.000Z</time>
      </trkpt>
      <trkpt lat="47.88872" lon="7.18193">
        <ele>447.26</ele>
        <time>2019-02-27T14:49:09.000Z</time>
      </trkpt>
      <trkpt lat="47.88898" lon="7.18175">
        <ele>453.9</ele>
        <time>2019-02-27T14:49:29.000Z</time>
      </trkpt>
      <trkpt lat="47.88908" lon="7.18152">
        <ele>509.6</ele>
        <time>2019-02-27T14:49:47.000Z</time>
      </trkpt>
      <trkpt lat="47.88916" lon="7.18127">
        <ele>513.69</ele>
        <time>2019-02-27T14:50:05.000Z</time>
      </trkpt>
      <trkpt lat="47.88931" lon="7.18108">
        <ele>508.97</ele>
        <time>2019-02-27T14:50:23.000Z</time>
      </trkpt>
      <trkpt lat="47.88938" lon="7.18089">
        <ele>803.1</ele>
        <time>2019-02-27T14:50:41.000Z</time>
      </trkpt>
      <trkpt lat="47.88936" lon="7.18085">
        <ele>774.63</ele>
        <time>2019-02-27T14:50:59.000Z</time>
      </trkpt>
      <trkpt lat="47.8895" lon="7.18053">
        <ele>527.65</ele>
        <time>2019-02-27T14:51:16.000Z</time>
      </trkpt>
      <trkpt lat="47.88956" lon="7.1803">
        <ele>677.29</ele>
        <time>2019-02-27T14:51:31.000Z</time>
      </trkpt>
      <trkpt lat="47.88967" lon="7.18011">
        <ele>459.42</ele>
        <time>2019-02-27T14:51:49.000Z</time>
      </trkpt>
      <trkpt lat="47.88978" lon="7.17985">
        <ele>443.48</ele>
        <time>2019-02-27T14:52:07.000Z</time>
      </trkpt>
      <trkpt lat="47.88994" lon="7.17962">
        <ele>451.79</ele>
        <time>2019-02-27T14:52:25.000Z</time>
      </trkpt>
      <trkpt lat="47.88994" lon="7.17949">
        <ele>440.43</ele>
        <time>2019-02-27T14:52:43.000Z</time>
      </trkpt>
      <trkpt lat="47.89009" lon="7.17923">
        <ele>434.51</ele>
        <time>2019-02-27T14:53:01.000Z</time>
      </trkpt>
      <trkpt lat="47.89023" lon="7.17925">
        <ele>429.83</ele>
        <time>2019-02-27T14:53:19.000Z</time>
      </trkpt>
      <trkpt lat="47.89034" lon="7.17913">
        <ele>429.07</ele>
        <time>2019-02-27T14:53:37.000Z</time>
      </trkpt>
      <trkpt lat="47.89033" lon="7.17932">
        <ele>650.88</ele>
        <time>2019-02-27T14:53:55.000Z</time>
      </trkpt>
      <trkpt lat="47.89034" lon="7.17943">
        <ele>530.24</ele>
        <time>2019-02-27T14:54:13.000Z</time>
      </trkpt>
      <trkpt lat="47.89034" lon="7.17945">
        <ele>656.08</ele>
        <time>2019-02-27T14:54:31.000Z</time>
      </trkpt>
      <trkpt lat="47.89035" lon="7.17952">
        <ele>692.43</ele>
        <time>2019-02-27T14:54:49.000Z</time>
      </trkpt>
      <trkpt lat="47.8904" lon="7.17976">
        <ele>456.47</ele>
        <time>2019-02-27T14:55:07.000Z</time>
      </trkpt>
      <trkpt lat="47.89059" lon="7.18002">
        <ele>467.49</ele>
        <time>2019-02-27T14:55:25.000Z</time>
      </trkpt>
      <trkpt lat="47.89062" lon="7.18024">
        <ele>432.36</ele>
        <time>2019-02-27T14:55:43.000Z</time>
      </trkpt>
      <trkpt lat="47.89092" lon="7.18044">
        <ele>436.47</ele>
        <time>2019-02-27T14:56:01.000Z</time>
      </trkpt>
      <trkpt lat="47.89106" lon="7.18039">
        <ele>451.1</ele>
        <time>2019-02-27T14:56:19.000Z</time>
      </trkpt>
      <trkpt lat="47.89127" lon="7.18034">
        <ele>433.9</ele>
        <time>2019-02-27T14:56:37.000Z</time>
      </trkpt>
      <trkpt lat="47.89147" lon="7.18014">
        <ele>442.02</ele>
        <time>2019-02-27T14:56:55.000Z</time>
      </trkpt>
      <trkpt lat="47.89159" lon="7.17998">
        <ele>441.45</ele>
        <time>2019-02-27T14:57:14.000Z</time>
      </trkpt>
      <trkpt lat="47.89177" lon="7.18005">
        <ele>444.72</ele>
        <time>2019-02-27T14:57:32.000Z</time>
      </trkpt>
      <trkpt lat="47.89186" lon="7.18007">
        <ele>449.51</ele>
        <time>2019-02-27T14:57:50.000Z</time>
      </trkpt>
      <trkpt lat="47.89203" lon="7.17995">
        <ele>446.91</ele>
        <time>2019-02-27T14:58:07.000Z</time>
      </trkpt>
      <trkpt lat="47.89234" lon="7.1801">
        <ele>448.81</ele>
        <time>2019-02-27T14:58:25.000Z</time>
      </trkpt>
      <trkpt lat="47.89252" lon="7.18011">
        <ele>453.45</ele>
        <time>2019-02-27T14:58:43.000Z</time>
      </trkpt>
      <trkpt lat="47.89265" lon="7.18013">
        <ele>466.25</ele>
        <time>2019-02-27T14:59:01.000Z</time>
      </trkpt>
      <trkpt lat="47.8927" lon="7.17995">
        <ele>464.17</ele>
        <time>2019-02-27T14:59:19.000Z</time>
      </trkpt>
      <trkpt lat="47.89307" lon="7.1795">
        <ele>460.5</ele>
        <time>2019-02-27T14:59:37.000Z</time>
      </trkpt>
      <trkpt lat="47.89293" lon="7.17934">
        <ele>460.54</ele>
        <time>2019-02-27T14:59:55.000Z</time>
      </trkpt>
      <trkpt lat="47.89296" lon="7.17921">
        <ele>466.58</ele>
        <time>2019-02-27T15:00:13.000Z</time>
      </trkpt>
      <trkpt lat="47.8931" lon="7.17914">
        <ele>472.42</ele>
        <time>2019-02-27T15:00:31.000Z</time>
      </trkpt>
      <trkpt lat="47.89329" lon="7.1789">
        <ele>471.02</ele>
        <time>2019-02-27T15:00:49.000Z</time>
      </trkpt>
      <trkpt lat="47.8933" lon="7.17884">
        <ele>470.03</ele>
        <time>2019-02-27T15:01:07.000Z</time>
      </trkpt>
      <trkpt lat="47.8934" lon="7.17873">
        <ele>475.12</ele>
        <time>2019-02-27T15:01:24.000Z</time>
      </trkpt>
      <trkpt lat="47.89358" lon="7.17869">
        <ele>478.56</ele>
        <time>2019-02-27T15:01:42.000Z</time>
      </trkpt>
      <trkpt lat="47.89369" lon="7.17848">
        <ele>483.81</ele>
        <time>2019-02-27T15:02:00.000Z</time>
      </trkpt>
      <trkpt lat="47.89374" lon="7.17843">
        <ele>487.51</ele>
        <time>2019-02-27T15:02:18.000Z</time>
      </trkpt>
      <trkpt lat="47.8938" lon="7.17808">
        <ele>487.25</ele>
        <time>2019-02-27T15:02:36.000Z</time>
      </trkpt>
      <trkpt lat="47.89395" lon="7.17803">
        <ele>494.97</ele>
        <time>2019-02-27T15:02:54.000Z</time>
      </trkpt>
      <trkpt lat="47.89402" lon="7.17776">
        <ele>487.93</ele>
        <time>2019-02-27T15:03:12.000Z</time>
      </trkpt>
      <trkpt lat="47.89408" lon="7.17778">
        <ele>486.93</ele>
        <time>2019-02-27T15:03:30.000Z</time>
      </trkpt>
      <trkpt lat="47.89417" lon="7.17781">
        <ele>475.95</ele>
        <time>2019-02-27T15:03:48.000Z</time>
      </trkpt>
      <trkpt lat="47.89419" lon="7.17786">
        <ele>476.17</ele>
        <time>2019-02-27T15:04:06.000Z</time>
      </trkpt>
      <trkpt lat="47.8943" lon="7.17783">
        <ele>478.69</ele>
        <time>2019-02-27T15:04:24.000Z</time>
      </trkpt>
      <trkpt lat="47.89444" lon="7.17773">
        <ele>478.7</ele>
        <time>2019-02-27T15:04:42.000Z</time>
      </trkpt>
      <trkpt lat="47.89451" lon="7.17746">
        <ele>484</ele>
        <time>2019-02-27T15:05:00.000Z</time>
      </trkpt>
      <trkpt lat="47.89457" lon="7.17701">
        <ele>477.28</ele>
        <time>2019-02-27T15:05:18.000Z</time>
      </trkpt>
      <trkpt lat="47.89473" lon="7.17688">
        <ele>485</ele>
        <time>2019-02-27T15:05:37.000Z</time>
      </trkpt>
      <trkpt lat="47.89487" lon="7.17669">
        <ele>492.74</ele>
        <time>2019-02-27T15:05:55.000Z</time>
      </trkpt>
      <trkpt lat="47.8949" lon="7.17641">
        <ele>533.5</ele>
        <time>2019-02-27T15:06:13.000Z</time>
      </trkpt>
      <trkpt lat="47.89506" lon="7.17614">
        <ele>491.65</ele>
        <time>2019-02-27T15:06:31.000Z</time>
      </trkpt>
      <trkpt lat="47.89519" lon="7.17589">
        <ele>508.85</ele>
        <time>2019-02-27T15:06:49.000Z</time>
      </trkpt>
      <trkpt lat="47.89538" lon="7.17587">
        <ele>507.42</ele>
        <time>2019-02-27T15:07:07.000Z</time>
      </trkpt>
      <trkpt lat="47.89552" lon="7.17574">
        <ele>508.43</ele>
        <time>2019-02-27T15:07:25.000Z</time>
      </trkpt>
      <trkpt lat="47.89558" lon="7.17561">
        <ele>485.73</ele>
        <time>2019-02-27T15:07:43.000Z</time>
      </trkpt>
      <trkpt lat="47.8958" lon="7.17572">
        <ele>478.09</ele>
        <time>2019-02-27T15:08:01.000Z</time>
      </trkpt>
      <trkpt lat="47.89599" lon="7.17583">
        <ele>471.07</ele>
        <time>2019-02-27T15:08:19.000Z</time>
      </trkpt>
      <trkpt lat="47.89622" lon="7.17595">
        <ele>471</ele>
        <time>2019-02-27T15:08:37.000Z</time>
      </trkpt>
      <trkpt lat="47.89638" lon="7.17581">
        <ele>473.13</ele>
        <time>2019-02-27T15:08:55.000Z</time>
      </trkpt>
      <trkpt lat="47.89663" lon="7.17584">
        <ele>472.01</ele>
        <time>2019-02-27T15:09:13.000Z</time>
      </trkpt>
      <trkpt lat="47.89682" lon="7.17568">
        <ele>475.41</ele>
        <time>2019-02-27T15:09:31.000Z</time>
      </trkpt>
      <trkpt lat="47.89707" lon="7.17564">
        <ele>469.85</ele>
        <time>2019-02-27T15:09:49.000Z</time>
      </trkpt>
      <trkpt lat="47.89726" lon="7.17553">
        <ele>471.02</ele>
        <time>2019-02-27T15:10:07.000Z</time>
      </trkpt>
      <trkpt lat="47.89738" lon="7.17556">
        <ele>467.72</ele>
        <time>2019-02-27T15:10:25.000Z</time>
      </trkpt>
      <trkpt lat="47.89759" lon="7.1755">
        <ele>469.23</ele>
        <time>2019-02-27T15:10:43.000Z</time>
      </trkpt>
      <trkpt lat="47.89779" lon="7.17538">
        <ele>468.05</ele>
        <time>2019-02-27T15:11:01.000Z</time>
      </trkpt>
      <trkpt lat="47.89799" lon="7.17533">
        <ele>465.59</ele>
        <time>2019-02-27T15:11:19.000Z</time>
      </trkpt>
      <trkpt lat="47.8982" lon="7.17533">
        <ele>465.8</ele>
        <time>2019-02-27T15:11:37.000Z</time>
      </trkpt>
      <trkpt lat="47.89841" lon="7.17539">
        <ele>465.26</ele>
        <time>2019-02-27T15:11:55.000Z</time>
      </trkpt>
      <trkpt lat="47.89862" lon="7.17528">
        <ele>466.66</ele>
        <time>2019-02-27T15:12:13.000Z</time>
      </trkpt>
      <trkpt lat="47.89886" lon="7.17516">
        <ele>467.03</ele>
        <time>2019-02-27T15:12:31.000Z</time>
      </trkpt>
      <trkpt lat="47.89904" lon="7.17511">
        <ele>470.54</ele>
        <time>2019-02-27T15:12:49.000Z</time>
      </trkpt>
      <trkpt lat="47.89909" lon="7.17511">
        <ele>472.35</ele>
        <time>2019-02-27T15:13:07.000Z</time>
      </trkpt>
      <trkpt lat="47.89911" lon="7.17515">
        <ele>470.84</ele>
        <time>2019-02-27T15:13:25.000Z</time>
      </trkpt>
      <trkpt lat="47.89932" lon="7.17517">
        <ele>469.76</ele>
        <time>2019-02-27T15:13:43.000Z</time>
      </trkpt>
      <trkpt lat="47.89953" lon="7.17525">
        <ele>472.12</ele>
        <time>2019-02-27T15:14:01.000Z</time>
      </trkpt>
      <trkpt lat="47.89965" lon="7.17536">
        <ele>472.81</ele>
        <time>2019-02-27T15:14:19.000Z</time>
      </trkpt>
      <trkpt lat="47.89983" lon="7.17557">
        <ele>471.71</ele>
        <time>2019-02-27T15:14:37.000Z</time>
      </trkpt>
      <trkpt lat="47.8999" lon="7.17586">
        <ele>470.78</ele>
        <time>2019-02-27T15:14:55.000Z</time>
      </trkpt>
      <trkpt lat="47.90012" lon="7.17594">
        <ele>469.05</ele>
        <time>2019-02-27T15:15:13.000Z</time>
      </trkpt>
      <trkpt lat="47.90019" lon="7.17619">
        <ele>473.89</ele>
        <time>2019-02-27T15:15:31.000Z</time>
      </trkpt>
      <trkpt lat="47.90038" lon="7.17616">
        <ele>471.33</ele>
        <time>2019-02-27T15:15:49.000Z</time>
      </trkpt>
      <trkpt lat="47.90043" lon="7.17641">
        <ele>463.99</ele>
        <time>2019-02-27T15:16:09.000Z</time>
      </trkpt>
    </trkseg>
  </trk>
</gpx>